<?xml version="1.0" encoding="UTF-8" standalone="no" ?>
<gpx xmlns="http://www.topografix.com/GPX/1/1" xmlns:xsi="http://www.w3.org/2001/XMLSchema-instance" xsi:schemaLocation="http://www.topografix.com/GPX/1/1 http://www.topografix.com/GPX/1/1/gpx.xsd" version="1.1" creator="VisuGPX - https://www.visugpx.com">
  <metadata>
    <name>villecomtal-st genies des ers-campuac</name>
    <desc><![CDATA[Belle rando majoritairement faite dans les bois avec succession de sentiers,pistes forestieres et quelques km sur petites routes. Village de Villecomtal superbe.]]></desc>
  </metadata>
  <trk>
    <name><![CDATA[2016-03-11 11:23]]></name>
    <desc><![CDATA[<p>Temps de départ: 03/11/2016 11:23</p><p>Temps d'arrivée: 03/11/2016 17:08</p><p>Distance: 21,6 km (05:45)</p><p>Temps déplacement: 04:18</p><p>Vitesse moyenne: 3,7 km/h</p><p>Vitesse moyenne mouvement: 5 km/h</p><p>Vitess Max.: 21,9km/h</p><p>Altitude minimale: 255 m</p><p>Altitude maximale: 636 m</p><p>Vitesse d'élévation: 426,3 m/h</p><p>Vitesse de descente: -388,6 m/h</p><p>Gain Altitude: 1084 m</p><p>Perte Altitude: -1040 m</p><p>Temps d'élévation: 02:32</p><p>Temps de descente: 02:40</p><hr align="center" width="480" style="height: 2px; width: 517px"/>]]></desc>
    <trkseg>
      <trkpt lat="44.5382" lon="2.56471">
        <ele>288.04</ele>
        <time>2016-03-11T10:23:08Z</time>
      </trkpt>
      <trkpt lat="44.53813" lon="2.56494">
        <ele>302.44</ele>
        <time>2016-03-11T10:26:53Z</time>
      </trkpt>
      <trkpt lat="44.53809" lon="2.56519">
        <ele>309.91</ele>
        <time>2016-03-11T10:27:32Z</time>
      </trkpt>
      <trkpt lat="44.53746" lon="2.56545">
        <ele>255.29</ele>
        <time>2016-03-11T10:28:43Z</time>
      </trkpt>
      <trkpt lat="44.53729" lon="2.56557">
        <ele>305.61</ele>
        <time>2016-03-11T10:29:22Z</time>
      </trkpt>
      <trkpt lat="44.53711" lon="2.56555">
        <ele>306.3</ele>
        <time>2016-03-11T10:29:34Z</time>
      </trkpt>
      <trkpt lat="44.53693" lon="2.56555">
        <ele>308.57</ele>
        <time>2016-03-11T10:30:04Z</time>
      </trkpt>
      <trkpt lat="44.53678" lon="2.56571">
        <ele>309.48</ele>
        <time>2016-03-11T10:30:25Z</time>
      </trkpt>
      <trkpt lat="44.53665" lon="2.56591">
        <ele>318.71</ele>
        <time>2016-03-11T10:31:07Z</time>
      </trkpt>
      <trkpt lat="44.53647" lon="2.5659">
        <ele>326.03</ele>
        <time>2016-03-11T10:31:42Z</time>
      </trkpt>
      <trkpt lat="44.53629" lon="2.56585">
        <ele>336.75</ele>
        <time>2016-03-11T10:32:08Z</time>
      </trkpt>
      <trkpt lat="44.53611" lon="2.56579">
        <ele>337.74</ele>
        <time>2016-03-11T10:32:36Z</time>
      </trkpt>
      <trkpt lat="44.53607" lon="2.56604">
        <ele>335.87</ele>
        <time>2016-03-11T10:33:02Z</time>
      </trkpt>
      <trkpt lat="44.53622" lon="2.56637">
        <ele>336.68</ele>
        <time>2016-03-11T10:33:38Z</time>
      </trkpt>
      <trkpt lat="44.53607" lon="2.56653">
        <ele>349.89</ele>
        <time>2016-03-11T10:34:54Z</time>
      </trkpt>
      <trkpt lat="44.53603" lon="2.56678">
        <ele>353.23</ele>
        <time>2016-03-11T10:35:57Z</time>
      </trkpt>
      <trkpt lat="44.53609" lon="2.56704">
        <ele>368.4</ele>
        <time>2016-03-11T10:36:32Z</time>
      </trkpt>
      <trkpt lat="44.53607" lon="2.5673">
        <ele>374.81</ele>
        <time>2016-03-11T10:37:01Z</time>
      </trkpt>
      <trkpt lat="44.53605" lon="2.56756">
        <ele>381.25</ele>
        <time>2016-03-11T10:37:41Z</time>
      </trkpt>
      <trkpt lat="44.5358" lon="2.56743">
        <ele>386.77</ele>
        <time>2016-03-11T10:38:36Z</time>
      </trkpt>
      <trkpt lat="44.53586" lon="2.56768">
        <ele>390.36</ele>
        <time>2016-03-11T10:39:02Z</time>
      </trkpt>
      <trkpt lat="44.53584" lon="2.56794">
        <ele>391</ele>
        <time>2016-03-11T10:39:17Z</time>
      </trkpt>
      <trkpt lat="44.53588" lon="2.5682">
        <ele>396.19</ele>
        <time>2016-03-11T10:39:43Z</time>
      </trkpt>
      <trkpt lat="44.53589" lon="2.56846">
        <ele>401.46</ele>
        <time>2016-03-11T10:40:02Z</time>
      </trkpt>
      <trkpt lat="44.53588" lon="2.56873">
        <ele>403.88</ele>
        <time>2016-03-11T10:40:21Z</time>
      </trkpt>
      <trkpt lat="44.53594" lon="2.56898">
        <ele>410.03</ele>
        <time>2016-03-11T10:40:47Z</time>
      </trkpt>
      <trkpt lat="44.53605" lon="2.56919">
        <ele>407.89</ele>
        <time>2016-03-11T10:41:02Z</time>
      </trkpt>
      <trkpt lat="44.53612" lon="2.56942">
        <ele>408.86</ele>
        <time>2016-03-11T10:41:23Z</time>
      </trkpt>
      <trkpt lat="44.53615" lon="2.56968">
        <ele>413.78</ele>
        <time>2016-03-11T10:41:43Z</time>
      </trkpt>
      <trkpt lat="44.53624" lon="2.56992">
        <ele>417.27</ele>
        <time>2016-03-11T10:41:59Z</time>
      </trkpt>
      <trkpt lat="44.53634" lon="2.57015">
        <ele>421.61</ele>
        <time>2016-03-11T10:42:19Z</time>
      </trkpt>
      <trkpt lat="44.53647" lon="2.57033">
        <ele>420.9</ele>
        <time>2016-03-11T10:42:42Z</time>
      </trkpt>
      <trkpt lat="44.5366" lon="2.57051">
        <ele>422.51</ele>
        <time>2016-03-11T10:42:58Z</time>
      </trkpt>
      <trkpt lat="44.5367" lon="2.57103">
        <ele>418.5</ele>
        <time>2016-03-11T10:43:41Z</time>
      </trkpt>
      <trkpt lat="44.5366" lon="2.57124">
        <ele>422.81</ele>
        <time>2016-03-11T10:44:14Z</time>
      </trkpt>
      <trkpt lat="44.53658" lon="2.5715">
        <ele>428.01</ele>
        <time>2016-03-11T10:44:35Z</time>
      </trkpt>
      <trkpt lat="44.53652" lon="2.57174">
        <ele>433.27</ele>
        <time>2016-03-11T10:44:52Z</time>
      </trkpt>
      <trkpt lat="44.53648" lon="2.572">
        <ele>437.65</ele>
        <time>2016-03-11T10:45:12Z</time>
      </trkpt>
      <trkpt lat="44.53646" lon="2.57225">
        <ele>438.74</ele>
        <time>2016-03-11T10:45:29Z</time>
      </trkpt>
      <trkpt lat="44.53643" lon="2.5725">
        <ele>440.79</ele>
        <time>2016-03-11T10:45:47Z</time>
      </trkpt>
      <trkpt lat="44.53641" lon="2.57275">
        <ele>440.24</ele>
        <time>2016-03-11T10:46:05Z</time>
      </trkpt>
      <trkpt lat="44.53639" lon="2.573">
        <ele>442.22</ele>
        <time>2016-03-11T10:46:22Z</time>
      </trkpt>
      <trkpt lat="44.53646" lon="2.57324">
        <ele>447.04</ele>
        <time>2016-03-11T10:46:44Z</time>
      </trkpt>
      <trkpt lat="44.53657" lon="2.57346">
        <ele>448.99</ele>
        <time>2016-03-11T10:47:12Z</time>
      </trkpt>
      <trkpt lat="44.53659" lon="2.57372">
        <ele>452</ele>
        <time>2016-03-11T10:47:30Z</time>
      </trkpt>
      <trkpt lat="44.53659" lon="2.57397">
        <ele>454.62</ele>
        <time>2016-03-11T10:47:46Z</time>
      </trkpt>
      <trkpt lat="44.53654" lon="2.57424">
        <ele>461.81</ele>
        <time>2016-03-11T10:48:45Z</time>
      </trkpt>
      <trkpt lat="44.53663" lon="2.57448">
        <ele>457.48</ele>
        <time>2016-03-11T10:49:02Z</time>
      </trkpt>
      <trkpt lat="44.53668" lon="2.57473">
        <ele>469.18</ele>
        <time>2016-03-11T10:49:17Z</time>
      </trkpt>
      <trkpt lat="44.53676" lon="2.57495">
        <ele>472.71</ele>
        <time>2016-03-11T10:49:33Z</time>
      </trkpt>
      <trkpt lat="44.53688" lon="2.57515">
        <ele>468.24</ele>
        <time>2016-03-11T10:49:43Z</time>
      </trkpt>
      <trkpt lat="44.53688" lon="2.5754">
        <ele>460.57</ele>
        <time>2016-03-11T10:49:58Z</time>
      </trkpt>
      <trkpt lat="44.537" lon="2.57559">
        <ele>455.29</ele>
        <time>2016-03-11T10:50:23Z</time>
      </trkpt>
      <trkpt lat="44.5372" lon="2.5757">
        <ele>447.67</ele>
        <time>2016-03-11T10:50:34Z</time>
      </trkpt>
      <trkpt lat="44.53734" lon="2.57587">
        <ele>446.7</ele>
        <time>2016-03-11T10:50:51Z</time>
      </trkpt>
      <trkpt lat="44.53742" lon="2.5761">
        <ele>443.42</ele>
        <time>2016-03-11T10:51:08Z</time>
      </trkpt>
      <trkpt lat="44.53751" lon="2.57633">
        <ele>445.56</ele>
        <time>2016-03-11T10:51:28Z</time>
      </trkpt>
      <trkpt lat="44.53748" lon="2.5766">
        <ele>440.09</ele>
        <time>2016-03-11T10:51:47Z</time>
      </trkpt>
      <trkpt lat="44.53734" lon="2.57677">
        <ele>435.28</ele>
        <time>2016-03-11T10:52:03Z</time>
      </trkpt>
      <trkpt lat="44.53721" lon="2.57695">
        <ele>435.44</ele>
        <time>2016-03-11T10:52:19Z</time>
      </trkpt>
      <trkpt lat="44.53709" lon="2.57715">
        <ele>436.49</ele>
        <time>2016-03-11T10:52:39Z</time>
      </trkpt>
      <trkpt lat="44.53696" lon="2.57733">
        <ele>431.16</ele>
        <time>2016-03-11T10:52:51Z</time>
      </trkpt>
      <trkpt lat="44.53661" lon="2.578">
        <ele>439.39</ele>
        <time>2016-03-11T10:53:41Z</time>
      </trkpt>
      <trkpt lat="44.53668" lon="2.57826">
        <ele>440.84</ele>
        <time>2016-03-11T10:54:20Z</time>
      </trkpt>
      <trkpt lat="44.53654" lon="2.57844">
        <ele>444.18</ele>
        <time>2016-03-11T10:54:30Z</time>
      </trkpt>
      <trkpt lat="44.53662" lon="2.57871">
        <ele>440.11</ele>
        <time>2016-03-11T10:54:38Z</time>
      </trkpt>
      <trkpt lat="44.53681" lon="2.57885">
        <ele>439.6</ele>
        <time>2016-03-11T10:55:05Z</time>
      </trkpt>
      <trkpt lat="44.53699" lon="2.57882">
        <ele>442.67</ele>
        <time>2016-03-11T10:55:16Z</time>
      </trkpt>
      <trkpt lat="44.53717" lon="2.57888">
        <ele>441.24</ele>
        <time>2016-03-11T10:55:37Z</time>
      </trkpt>
      <trkpt lat="44.53743" lon="2.57883">
        <ele>443.68</ele>
        <time>2016-03-11T10:56:02Z</time>
      </trkpt>
      <trkpt lat="44.53763" lon="2.57884">
        <ele>440.43</ele>
        <time>2016-03-11T10:56:23Z</time>
      </trkpt>
      <trkpt lat="44.53779" lon="2.57898">
        <ele>438.52</ele>
        <time>2016-03-11T10:56:33Z</time>
      </trkpt>
      <trkpt lat="44.53791" lon="2.57918">
        <ele>435.01</ele>
        <time>2016-03-11T10:56:51Z</time>
      </trkpt>
      <trkpt lat="44.53809" lon="2.57926">
        <ele>438.67</ele>
        <time>2016-03-11T10:57:09Z</time>
      </trkpt>
      <trkpt lat="44.53827" lon="2.5793">
        <ele>431.61</ele>
        <time>2016-03-11T10:57:26Z</time>
      </trkpt>
      <trkpt lat="44.53844" lon="2.57941">
        <ele>435.09</ele>
        <time>2016-03-11T10:57:41Z</time>
      </trkpt>
      <trkpt lat="44.53831" lon="2.5803">
        <ele>434.97</ele>
        <time>2016-03-11T10:58:46Z</time>
      </trkpt>
      <trkpt lat="44.53832" lon="2.58056">
        <ele>440.49</ele>
        <time>2016-03-11T10:59:08Z</time>
      </trkpt>
      <trkpt lat="44.5385" lon="2.58057">
        <ele>460.72</ele>
        <time>2016-03-11T10:59:16Z</time>
      </trkpt>
      <trkpt lat="44.5386" lon="2.58077">
        <ele>485.97</ele>
        <time>2016-03-11T10:59:34Z</time>
      </trkpt>
      <trkpt lat="44.53853" lon="2.58101">
        <ele>479.75</ele>
        <time>2016-03-11T11:00:00Z</time>
      </trkpt>
      <trkpt lat="44.53845" lon="2.58124">
        <ele>483.79</ele>
        <time>2016-03-11T11:00:17Z</time>
      </trkpt>
      <trkpt lat="44.53835" lon="2.58148">
        <ele>490.52</ele>
        <time>2016-03-11T11:00:35Z</time>
      </trkpt>
      <trkpt lat="44.53825" lon="2.58171">
        <ele>485.45</ele>
        <time>2016-03-11T11:00:51Z</time>
      </trkpt>
      <trkpt lat="44.53814" lon="2.58194">
        <ele>479.85</ele>
        <time>2016-03-11T11:01:07Z</time>
      </trkpt>
      <trkpt lat="44.53811" lon="2.58219">
        <ele>484.99</ele>
        <time>2016-03-11T11:01:25Z</time>
      </trkpt>
      <trkpt lat="44.53808" lon="2.58246">
        <ele>486.39</ele>
        <time>2016-03-11T11:01:39Z</time>
      </trkpt>
      <trkpt lat="44.53811" lon="2.58272">
        <ele>484.13</ele>
        <time>2016-03-11T11:01:53Z</time>
      </trkpt>
      <trkpt lat="44.53821" lon="2.58294">
        <ele>486.43</ele>
        <time>2016-03-11T11:02:08Z</time>
      </trkpt>
      <trkpt lat="44.53834" lon="2.58313">
        <ele>488.37</ele>
        <time>2016-03-11T11:02:19Z</time>
      </trkpt>
      <trkpt lat="44.53848" lon="2.5833">
        <ele>492.86</ele>
        <time>2016-03-11T11:02:31Z</time>
      </trkpt>
      <trkpt lat="44.53852" lon="2.58356">
        <ele>490.25</ele>
        <time>2016-03-11T11:02:52Z</time>
      </trkpt>
      <trkpt lat="44.5388" lon="2.58348">
        <ele>476.16</ele>
        <time>2016-03-11T11:03:43Z</time>
      </trkpt>
      <trkpt lat="44.53898" lon="2.58353">
        <ele>480.27</ele>
        <time>2016-03-11T11:03:54Z</time>
      </trkpt>
      <trkpt lat="44.53917" lon="2.58349">
        <ele>481.77</ele>
        <time>2016-03-11T11:04:10Z</time>
      </trkpt>
      <trkpt lat="44.53935" lon="2.58346">
        <ele>474.3</ele>
        <time>2016-03-11T11:04:30Z</time>
      </trkpt>
      <trkpt lat="44.53953" lon="2.58355">
        <ele>472.68</ele>
        <time>2016-03-11T11:04:45Z</time>
      </trkpt>
      <trkpt lat="44.53959" lon="2.58381">
        <ele>476.9</ele>
        <time>2016-03-11T11:05:05Z</time>
      </trkpt>
      <trkpt lat="44.53958" lon="2.58406">
        <ele>483.4</ele>
        <time>2016-03-11T11:05:26Z</time>
      </trkpt>
      <trkpt lat="44.53949" lon="2.58429">
        <ele>488.88</ele>
        <time>2016-03-11T11:05:46Z</time>
      </trkpt>
      <trkpt lat="44.53957" lon="2.58452">
        <ele>489.79</ele>
        <time>2016-03-11T11:06:00Z</time>
      </trkpt>
      <trkpt lat="44.53951" lon="2.58477">
        <ele>490.89</ele>
        <time>2016-03-11T11:06:15Z</time>
      </trkpt>
      <trkpt lat="44.53957" lon="2.58502">
        <ele>484.64</ele>
        <time>2016-03-11T11:06:31Z</time>
      </trkpt>
      <trkpt lat="44.53948" lon="2.58525">
        <ele>473.17</ele>
        <time>2016-03-11T11:06:48Z</time>
      </trkpt>
      <trkpt lat="44.5396" lon="2.58546">
        <ele>474.69</ele>
        <time>2016-03-11T11:07:02Z</time>
      </trkpt>
      <trkpt lat="44.53969" lon="2.5857">
        <ele>480.85</ele>
        <time>2016-03-11T11:07:19Z</time>
      </trkpt>
      <trkpt lat="44.5397" lon="2.58596">
        <ele>477.28</ele>
        <time>2016-03-11T11:07:35Z</time>
      </trkpt>
      <trkpt lat="44.53978" lon="2.58619">
        <ele>487</ele>
        <time>2016-03-11T11:07:51Z</time>
      </trkpt>
      <trkpt lat="44.53975" lon="2.58692">
        <ele>487.41</ele>
        <time>2016-03-11T11:08:43Z</time>
      </trkpt>
      <trkpt lat="44.53982" lon="2.58717">
        <ele>495.7</ele>
        <time>2016-03-11T11:08:59Z</time>
      </trkpt>
      <trkpt lat="44.53993" lon="2.58738">
        <ele>496.48</ele>
        <time>2016-03-11T11:09:10Z</time>
      </trkpt>
      <trkpt lat="44.54005" lon="2.58756">
        <ele>502.38</ele>
        <time>2016-03-11T11:09:24Z</time>
      </trkpt>
      <trkpt lat="44.54009" lon="2.58782">
        <ele>493.03</ele>
        <time>2016-03-11T11:09:46Z</time>
      </trkpt>
      <trkpt lat="44.53998" lon="2.58804">
        <ele>490.64</ele>
        <time>2016-03-11T11:10:03Z</time>
      </trkpt>
      <trkpt lat="44.53981" lon="2.58814">
        <ele>480.94</ele>
        <time>2016-03-11T11:10:20Z</time>
      </trkpt>
      <trkpt lat="44.53965" lon="2.58825">
        <ele>481.53</ele>
        <time>2016-03-11T11:10:36Z</time>
      </trkpt>
      <trkpt lat="44.53949" lon="2.58838">
        <ele>487.9</ele>
        <time>2016-03-11T11:10:50Z</time>
      </trkpt>
      <trkpt lat="44.53934" lon="2.58854">
        <ele>483.29</ele>
        <time>2016-03-11T11:11:03Z</time>
      </trkpt>
      <trkpt lat="44.53916" lon="2.58866">
        <ele>483.35</ele>
        <time>2016-03-11T11:11:16Z</time>
      </trkpt>
      <trkpt lat="44.53907" lon="2.58887">
        <ele>483.55</ele>
        <time>2016-03-11T11:11:33Z</time>
      </trkpt>
      <trkpt lat="44.53903" lon="2.58912">
        <ele>490.3</ele>
        <time>2016-03-11T11:11:51Z</time>
      </trkpt>
      <trkpt lat="44.53891" lon="2.58933">
        <ele>490.49</ele>
        <time>2016-03-11T11:12:04Z</time>
      </trkpt>
      <trkpt lat="44.5388" lon="2.58955">
        <ele>485.2</ele>
        <time>2016-03-11T11:12:19Z</time>
      </trkpt>
      <trkpt lat="44.53894" lon="2.58971">
        <ele>493.6</ele>
        <time>2016-03-11T11:12:31Z</time>
      </trkpt>
      <trkpt lat="44.53908" lon="2.58989">
        <ele>489.45</ele>
        <time>2016-03-11T11:12:41Z</time>
      </trkpt>
      <trkpt lat="44.53908" lon="2.59014">
        <ele>484.54</ele>
        <time>2016-03-11T11:13:01Z</time>
      </trkpt>
      <trkpt lat="44.53879" lon="2.59068">
        <ele>487.29</ele>
        <time>2016-03-11T11:13:42Z</time>
      </trkpt>
      <trkpt lat="44.53879" lon="2.59093">
        <ele>478.88</ele>
        <time>2016-03-11T11:13:58Z</time>
      </trkpt>
      <trkpt lat="44.53894" lon="2.59112">
        <ele>485.48</ele>
        <time>2016-03-11T11:14:12Z</time>
      </trkpt>
      <trkpt lat="44.53895" lon="2.59138">
        <ele>495.38</ele>
        <time>2016-03-11T11:14:31Z</time>
      </trkpt>
      <trkpt lat="44.53905" lon="2.59163">
        <ele>487.3</ele>
        <time>2016-03-11T11:14:51Z</time>
      </trkpt>
      <trkpt lat="44.53919" lon="2.59181">
        <ele>497.35</ele>
        <time>2016-03-11T11:15:06Z</time>
      </trkpt>
      <trkpt lat="44.53927" lon="2.59204">
        <ele>501.88</ele>
        <time>2016-03-11T11:15:23Z</time>
      </trkpt>
      <trkpt lat="44.53944" lon="2.59209">
        <ele>506.91</ele>
        <time>2016-03-11T11:15:38Z</time>
      </trkpt>
      <trkpt lat="44.53959" lon="2.59194">
        <ele>505.64</ele>
        <time>2016-03-11T11:15:49Z</time>
      </trkpt>
      <trkpt lat="44.53972" lon="2.59174">
        <ele>498.85</ele>
        <time>2016-03-11T11:16:02Z</time>
      </trkpt>
      <trkpt lat="44.53991" lon="2.5918">
        <ele>502.55</ele>
        <time>2016-03-11T11:16:19Z</time>
      </trkpt>
      <trkpt lat="44.53996" lon="2.59206">
        <ele>499.09</ele>
        <time>2016-03-11T11:16:36Z</time>
      </trkpt>
      <trkpt lat="44.53993" lon="2.59232">
        <ele>500.58</ele>
        <time>2016-03-11T11:16:56Z</time>
      </trkpt>
      <trkpt lat="44.53983" lon="2.59254">
        <ele>495.72</ele>
        <time>2016-03-11T11:17:11Z</time>
      </trkpt>
      <trkpt lat="44.53974" lon="2.59276">
        <ele>495.43</ele>
        <time>2016-03-11T11:17:28Z</time>
      </trkpt>
      <trkpt lat="44.53977" lon="2.59302">
        <ele>494.24</ele>
        <time>2016-03-11T11:17:47Z</time>
      </trkpt>
      <trkpt lat="44.5399" lon="2.59322">
        <ele>500.99</ele>
        <time>2016-03-11T11:17:58Z</time>
      </trkpt>
      <trkpt lat="44.53999" lon="2.59409">
        <ele>504.82</ele>
        <time>2016-03-11T11:18:44Z</time>
      </trkpt>
      <trkpt lat="44.54013" lon="2.59425">
        <ele>512.83</ele>
        <time>2016-03-11T11:18:54Z</time>
      </trkpt>
      <trkpt lat="44.54025" lon="2.59445">
        <ele>510.87</ele>
        <time>2016-03-11T11:19:14Z</time>
      </trkpt>
      <trkpt lat="44.5404" lon="2.59459">
        <ele>510.49</ele>
        <time>2016-03-11T11:19:28Z</time>
      </trkpt>
      <trkpt lat="44.54058" lon="2.59466">
        <ele>516.43</ele>
        <time>2016-03-11T11:19:46Z</time>
      </trkpt>
      <trkpt lat="44.5407" lon="2.59485">
        <ele>519.38</ele>
        <time>2016-03-11T11:20:01Z</time>
      </trkpt>
      <trkpt lat="44.5408" lon="2.5951">
        <ele>526.24</ele>
        <time>2016-03-11T11:20:24Z</time>
      </trkpt>
      <trkpt lat="44.54087" lon="2.59533">
        <ele>524.44</ele>
        <time>2016-03-11T11:20:43Z</time>
      </trkpt>
      <trkpt lat="44.54091" lon="2.5956">
        <ele>520.47</ele>
        <time>2016-03-11T11:20:58Z</time>
      </trkpt>
      <trkpt lat="44.54087" lon="2.59586">
        <ele>525.9</ele>
        <time>2016-03-11T11:21:14Z</time>
      </trkpt>
      <trkpt lat="44.54093" lon="2.5961">
        <ele>528.46</ele>
        <time>2016-03-11T11:21:30Z</time>
      </trkpt>
      <trkpt lat="44.54102" lon="2.59635">
        <ele>531.21</ele>
        <time>2016-03-11T11:21:47Z</time>
      </trkpt>
      <trkpt lat="44.54117" lon="2.59648">
        <ele>527.13</ele>
        <time>2016-03-11T11:22:05Z</time>
      </trkpt>
      <trkpt lat="44.54136" lon="2.5965">
        <ele>526.78</ele>
        <time>2016-03-11T11:22:24Z</time>
      </trkpt>
      <trkpt lat="44.54154" lon="2.59645">
        <ele>526.7</ele>
        <time>2016-03-11T11:22:35Z</time>
      </trkpt>
      <trkpt lat="44.54172" lon="2.5964">
        <ele>535.54</ele>
        <time>2016-03-11T11:22:55Z</time>
      </trkpt>
      <trkpt lat="44.54228" lon="2.59628">
        <ele>536.14</ele>
        <time>2016-03-11T11:23:43Z</time>
      </trkpt>
      <trkpt lat="44.54246" lon="2.59631">
        <ele>534.17</ele>
        <time>2016-03-11T11:25:18Z</time>
      </trkpt>
      <trkpt lat="44.54263" lon="2.59619">
        <ele>537.07</ele>
        <time>2016-03-11T11:25:32Z</time>
      </trkpt>
      <trkpt lat="44.54274" lon="2.59596">
        <ele>541.9</ele>
        <time>2016-03-11T11:25:46Z</time>
      </trkpt>
      <trkpt lat="44.5428" lon="2.59621">
        <ele>545.17</ele>
        <time>2016-03-11T11:26:22Z</time>
      </trkpt>
      <trkpt lat="44.54276" lon="2.59648">
        <ele>548.73</ele>
        <time>2016-03-11T11:26:36Z</time>
      </trkpt>
      <trkpt lat="44.54267" lon="2.5967">
        <ele>557.07</ele>
        <time>2016-03-11T11:26:51Z</time>
      </trkpt>
      <trkpt lat="44.54251" lon="2.59682">
        <ele>558.87</ele>
        <time>2016-03-11T11:27:05Z</time>
      </trkpt>
      <trkpt lat="44.54234" lon="2.5969">
        <ele>553.78</ele>
        <time>2016-03-11T11:27:19Z</time>
      </trkpt>
      <trkpt lat="44.54217" lon="2.59703">
        <ele>558.91</ele>
        <time>2016-03-11T11:27:34Z</time>
      </trkpt>
      <trkpt lat="44.542" lon="2.59714">
        <ele>552.46</ele>
        <time>2016-03-11T11:27:49Z</time>
      </trkpt>
      <trkpt lat="44.54185" lon="2.5973">
        <ele>558.68</ele>
        <time>2016-03-11T11:28:04Z</time>
      </trkpt>
      <trkpt lat="44.54145" lon="2.59769">
        <ele>557.59</ele>
        <time>2016-03-11T11:28:46Z</time>
      </trkpt>
      <trkpt lat="44.5414" lon="2.59795">
        <ele>560.43</ele>
        <time>2016-03-11T11:30:30Z</time>
      </trkpt>
      <trkpt lat="44.54139" lon="2.59822">
        <ele>554.72</ele>
        <time>2016-03-11T11:30:44Z</time>
      </trkpt>
      <trkpt lat="44.54138" lon="2.59847">
        <ele>553.81</ele>
        <time>2016-03-11T11:30:57Z</time>
      </trkpt>
      <trkpt lat="44.54136" lon="2.59874">
        <ele>548.28</ele>
        <time>2016-03-11T11:31:12Z</time>
      </trkpt>
      <trkpt lat="44.5414" lon="2.59899">
        <ele>559.12</ele>
        <time>2016-03-11T11:31:25Z</time>
      </trkpt>
      <trkpt lat="44.54141" lon="2.59925">
        <ele>557.89</ele>
        <time>2016-03-11T11:31:38Z</time>
      </trkpt>
      <trkpt lat="44.54141" lon="2.5995">
        <ele>552.89</ele>
        <time>2016-03-11T11:31:55Z</time>
      </trkpt>
      <trkpt lat="44.54134" lon="2.59976">
        <ele>548.61</ele>
        <time>2016-03-11T11:32:10Z</time>
      </trkpt>
      <trkpt lat="44.54128" lon="2.6">
        <ele>544.4</ele>
        <time>2016-03-11T11:32:23Z</time>
      </trkpt>
      <trkpt lat="44.5412" lon="2.60024">
        <ele>547.08</ele>
        <time>2016-03-11T11:32:38Z</time>
      </trkpt>
      <trkpt lat="44.54107" lon="2.60047">
        <ele>543.58</ele>
        <time>2016-03-11T11:32:54Z</time>
      </trkpt>
      <trkpt lat="44.54095" lon="2.60067">
        <ele>541.9</ele>
        <time>2016-03-11T11:33:08Z</time>
      </trkpt>
      <trkpt lat="44.54065" lon="2.6012">
        <ele>545.58</ele>
        <time>2016-03-11T11:33:44Z</time>
      </trkpt>
      <trkpt lat="44.54052" lon="2.60139">
        <ele>551.2</ele>
        <time>2016-03-11T11:33:58Z</time>
      </trkpt>
      <trkpt lat="44.54046" lon="2.60164">
        <ele>555.11</ele>
        <time>2016-03-11T11:34:11Z</time>
      </trkpt>
      <trkpt lat="44.5405" lon="2.60193">
        <ele>559.61</ele>
        <time>2016-03-11T11:34:48Z</time>
      </trkpt>
      <trkpt lat="44.54054" lon="2.60219">
        <ele>564.48</ele>
        <time>2016-03-11T11:34:57Z</time>
      </trkpt>
      <trkpt lat="44.54043" lon="2.60242">
        <ele>563.63</ele>
        <time>2016-03-11T11:35:26Z</time>
      </trkpt>
      <trkpt lat="44.54028" lon="2.60256">
        <ele>565.39</ele>
        <time>2016-03-11T11:35:41Z</time>
      </trkpt>
      <trkpt lat="44.54014" lon="2.60274">
        <ele>564.94</ele>
        <time>2016-03-11T11:35:54Z</time>
      </trkpt>
      <trkpt lat="44.54001" lon="2.60293">
        <ele>563.31</ele>
        <time>2016-03-11T11:36:06Z</time>
      </trkpt>
      <trkpt lat="44.53992" lon="2.60317">
        <ele>566.66</ele>
        <time>2016-03-11T11:36:19Z</time>
      </trkpt>
      <trkpt lat="44.53983" lon="2.6034">
        <ele>566.32</ele>
        <time>2016-03-11T11:36:34Z</time>
      </trkpt>
      <trkpt lat="44.5397" lon="2.60358">
        <ele>559.83</ele>
        <time>2016-03-11T11:36:46Z</time>
      </trkpt>
      <trkpt lat="44.53965" lon="2.60383">
        <ele>554.8</ele>
        <time>2016-03-11T11:37:01Z</time>
      </trkpt>
      <trkpt lat="44.53967" lon="2.60409">
        <ele>549.97</ele>
        <time>2016-03-11T11:37:17Z</time>
      </trkpt>
      <trkpt lat="44.53973" lon="2.60436">
        <ele>551.94</ele>
        <time>2016-03-11T11:37:29Z</time>
      </trkpt>
      <trkpt lat="44.5398" lon="2.60459">
        <ele>558.96</ele>
        <time>2016-03-11T11:37:42Z</time>
      </trkpt>
      <trkpt lat="44.53984" lon="2.60485">
        <ele>561.31</ele>
        <time>2016-03-11T11:38:02Z</time>
      </trkpt>
      <trkpt lat="44.53997" lon="2.60557">
        <ele>560.93</ele>
        <time>2016-03-11T11:38:46Z</time>
      </trkpt>
      <trkpt lat="44.53993" lon="2.60582">
        <ele>562.11</ele>
        <time>2016-03-11T11:39:01Z</time>
      </trkpt>
      <trkpt lat="44.5399" lon="2.60607">
        <ele>562.02</ele>
        <time>2016-03-11T11:39:11Z</time>
      </trkpt>
      <trkpt lat="44.53989" lon="2.60635">
        <ele>563.91</ele>
        <time>2016-03-11T11:39:27Z</time>
      </trkpt>
      <trkpt lat="44.53985" lon="2.60661">
        <ele>561.82</ele>
        <time>2016-03-11T11:39:40Z</time>
      </trkpt>
      <trkpt lat="44.5398" lon="2.60686">
        <ele>555.3</ele>
        <time>2016-03-11T11:39:52Z</time>
      </trkpt>
      <trkpt lat="44.53977" lon="2.60712">
        <ele>552.63</ele>
        <time>2016-03-11T11:40:06Z</time>
      </trkpt>
      <trkpt lat="44.53972" lon="2.60737">
        <ele>554.66</ele>
        <time>2016-03-11T11:40:20Z</time>
      </trkpt>
      <trkpt lat="44.53969" lon="2.60762">
        <ele>555.13</ele>
        <time>2016-03-11T11:40:39Z</time>
      </trkpt>
      <trkpt lat="44.53966" lon="2.60787">
        <ele>559.53</ele>
        <time>2016-03-11T11:40:52Z</time>
      </trkpt>
      <trkpt lat="44.53959" lon="2.60811">
        <ele>561.15</ele>
        <time>2016-03-11T11:41:09Z</time>
      </trkpt>
      <trkpt lat="44.53951" lon="2.60834">
        <ele>562.35</ele>
        <time>2016-03-11T11:41:18Z</time>
      </trkpt>
      <trkpt lat="44.53942" lon="2.60858">
        <ele>566.94</ele>
        <time>2016-03-11T11:41:31Z</time>
      </trkpt>
      <trkpt lat="44.53927" lon="2.60873">
        <ele>571.81</ele>
        <time>2016-03-11T11:41:43Z</time>
      </trkpt>
      <trkpt lat="44.53917" lon="2.60894">
        <ele>572.38</ele>
        <time>2016-03-11T11:41:59Z</time>
      </trkpt>
      <trkpt lat="44.53901" lon="2.60909">
        <ele>572.43</ele>
        <time>2016-03-11T11:42:23Z</time>
      </trkpt>
      <trkpt lat="44.53883" lon="2.60916">
        <ele>567.33</ele>
        <time>2016-03-11T11:42:34Z</time>
      </trkpt>
      <trkpt lat="44.53866" lon="2.60928">
        <ele>563.9</ele>
        <time>2016-03-11T11:42:47Z</time>
      </trkpt>
      <trkpt lat="44.53851" lon="2.60945">
        <ele>571.46</ele>
        <time>2016-03-11T11:43:02Z</time>
      </trkpt>
      <trkpt lat="44.53829" lon="2.61018">
        <ele>549.61</ele>
        <time>2016-03-11T11:43:47Z</time>
      </trkpt>
      <trkpt lat="44.53828" lon="2.61044">
        <ele>573.21</ele>
        <time>2016-03-11T11:43:58Z</time>
      </trkpt>
      <trkpt lat="44.53838" lon="2.61069">
        <ele>585.47</ele>
        <time>2016-03-11T11:44:13Z</time>
      </trkpt>
      <trkpt lat="44.53845" lon="2.61093">
        <ele>578.16</ele>
        <time>2016-03-11T11:44:22Z</time>
      </trkpt>
      <trkpt lat="44.53852" lon="2.61118">
        <ele>577.63</ele>
        <time>2016-03-11T11:44:38Z</time>
      </trkpt>
      <trkpt lat="44.53855" lon="2.61145">
        <ele>573.9</ele>
        <time>2016-03-11T11:44:54Z</time>
      </trkpt>
      <trkpt lat="44.53837" lon="2.61157">
        <ele>563.51</ele>
        <time>2016-03-11T11:46:03Z</time>
      </trkpt>
      <trkpt lat="44.53824" lon="2.61175">
        <ele>560.78</ele>
        <time>2016-03-11T11:46:18Z</time>
      </trkpt>
      <trkpt lat="44.53841" lon="2.61185">
        <ele>566.3</ele>
        <time>2016-03-11T11:46:28Z</time>
      </trkpt>
      <trkpt lat="44.53859" lon="2.6118">
        <ele>559.22</ele>
        <time>2016-03-11T11:46:44Z</time>
      </trkpt>
      <trkpt lat="44.53877" lon="2.61174">
        <ele>560.45</ele>
        <time>2016-03-11T11:46:56Z</time>
      </trkpt>
      <trkpt lat="44.53888" lon="2.61154">
        <ele>558.16</ele>
        <time>2016-03-11T11:47:09Z</time>
      </trkpt>
      <trkpt lat="44.53893" lon="2.61129">
        <ele>558.68</ele>
        <time>2016-03-11T11:47:22Z</time>
      </trkpt>
      <trkpt lat="44.53911" lon="2.61138">
        <ele>547.73</ele>
        <time>2016-03-11T11:48:01Z</time>
      </trkpt>
      <trkpt lat="44.53962" lon="2.61183">
        <ele>552.65</ele>
        <time>2016-03-11T11:48:47Z</time>
      </trkpt>
      <trkpt lat="44.53965" lon="2.61209">
        <ele>560.73</ele>
        <time>2016-03-11T11:49:09Z</time>
      </trkpt>
      <trkpt lat="44.53962" lon="2.61235">
        <ele>561.76</ele>
        <time>2016-03-11T11:49:25Z</time>
      </trkpt>
      <trkpt lat="44.53958" lon="2.6126">
        <ele>551.81</ele>
        <time>2016-03-11T11:49:40Z</time>
      </trkpt>
      <trkpt lat="44.53968" lon="2.61283">
        <ele>548.27</ele>
        <time>2016-03-11T11:49:51Z</time>
      </trkpt>
      <trkpt lat="44.53963" lon="2.61308">
        <ele>547.96</ele>
        <time>2016-03-11T11:50:08Z</time>
      </trkpt>
      <trkpt lat="44.53945" lon="2.613">
        <ele>547.37</ele>
        <time>2016-03-11T11:50:32Z</time>
      </trkpt>
      <trkpt lat="44.53927" lon="2.61292">
        <ele>541</ele>
        <time>2016-03-11T11:50:46Z</time>
      </trkpt>
      <trkpt lat="44.5391" lon="2.61282">
        <ele>542.03</ele>
        <time>2016-03-11T11:50:55Z</time>
      </trkpt>
      <trkpt lat="44.53892" lon="2.61289">
        <ele>534.44</ele>
        <time>2016-03-11T11:51:06Z</time>
      </trkpt>
      <trkpt lat="44.53883" lon="2.61316">
        <ele>521.91</ele>
        <time>2016-03-11T11:51:26Z</time>
      </trkpt>
      <trkpt lat="44.53886" lon="2.61343">
        <ele>527.71</ele>
        <time>2016-03-11T11:51:45Z</time>
      </trkpt>
      <trkpt lat="44.539" lon="2.61327">
        <ele>528.85</ele>
        <time>2016-03-11T11:52:26Z</time>
      </trkpt>
      <trkpt lat="44.53919" lon="2.61336">
        <ele>525.66</ele>
        <time>2016-03-11T11:52:44Z</time>
      </trkpt>
      <trkpt lat="44.53934" lon="2.61353">
        <ele>516.03</ele>
        <time>2016-03-11T11:53:00Z</time>
      </trkpt>
      <trkpt lat="44.53946" lon="2.61372">
        <ele>511.73</ele>
        <time>2016-03-11T11:53:15Z</time>
      </trkpt>
      <trkpt lat="44.53965" lon="2.61381">
        <ele>506</ele>
        <time>2016-03-11T11:53:34Z</time>
      </trkpt>
      <trkpt lat="44.54028" lon="2.61368">
        <ele>513.38</ele>
        <time>2016-03-11T11:54:11Z</time>
      </trkpt>
      <trkpt lat="44.54036" lon="2.61345">
        <ele>503.3</ele>
        <time>2016-03-11T11:54:32Z</time>
      </trkpt>
      <trkpt lat="44.54041" lon="2.61321">
        <ele>507.39</ele>
        <time>2016-03-11T11:54:48Z</time>
      </trkpt>
      <trkpt lat="44.54038" lon="2.61294">
        <ele>504.61</ele>
        <time>2016-03-11T11:55:01Z</time>
      </trkpt>
      <trkpt lat="44.5405" lon="2.61314">
        <ele>518.2</ele>
        <time>2016-03-11T11:55:38Z</time>
      </trkpt>
      <trkpt lat="44.54049" lon="2.61342">
        <ele>509.46</ele>
        <time>2016-03-11T11:56:03Z</time>
      </trkpt>
      <trkpt lat="44.54036" lon="2.61361">
        <ele>515.01</ele>
        <time>2016-03-11T11:56:14Z</time>
      </trkpt>
      <trkpt lat="44.54022" lon="2.61384">
        <ele>511.88</ele>
        <time>2016-03-11T11:56:28Z</time>
      </trkpt>
      <trkpt lat="44.54003" lon="2.61388">
        <ele>504.33</ele>
        <time>2016-03-11T11:56:49Z</time>
      </trkpt>
      <trkpt lat="44.53986" lon="2.61394">
        <ele>506.41</ele>
        <time>2016-03-11T11:57:02Z</time>
      </trkpt>
      <trkpt lat="44.53969" lon="2.6141">
        <ele>512.78</ele>
        <time>2016-03-11T11:57:21Z</time>
      </trkpt>
      <trkpt lat="44.5395" lon="2.61411">
        <ele>518.76</ele>
        <time>2016-03-11T11:57:37Z</time>
      </trkpt>
      <trkpt lat="44.53937" lon="2.61432">
        <ele>519.33</ele>
        <time>2016-03-11T11:57:49Z</time>
      </trkpt>
      <trkpt lat="44.53944" lon="2.61459">
        <ele>520.86</ele>
        <time>2016-03-11T11:58:03Z</time>
      </trkpt>
      <trkpt lat="44.53964" lon="2.61463">
        <ele>510.96</ele>
        <time>2016-03-11T11:58:26Z</time>
      </trkpt>
      <trkpt lat="44.53982" lon="2.61467">
        <ele>509.56</ele>
        <time>2016-03-11T11:58:37Z</time>
      </trkpt>
      <trkpt lat="44.54" lon="2.61465">
        <ele>508.28</ele>
        <time>2016-03-11T11:58:51Z</time>
      </trkpt>
      <trkpt lat="44.5402" lon="2.61456">
        <ele>505.05</ele>
        <time>2016-03-11T11:59:07Z</time>
      </trkpt>
      <trkpt lat="44.54035" lon="2.6147">
        <ele>506.36</ele>
        <time>2016-03-11T11:59:22Z</time>
      </trkpt>
      <trkpt lat="44.54055" lon="2.6148">
        <ele>517.8</ele>
        <time>2016-03-11T11:59:49Z</time>
      </trkpt>
      <trkpt lat="44.54072" lon="2.61463">
        <ele>516.78</ele>
        <time>2016-03-11T12:00:13Z</time>
      </trkpt>
      <trkpt lat="44.54091" lon="2.6146">
        <ele>521.93</ele>
        <time>2016-03-11T12:00:21Z</time>
      </trkpt>
      <trkpt lat="44.54103" lon="2.61439">
        <ele>521.42</ele>
        <time>2016-03-11T12:00:33Z</time>
      </trkpt>
      <trkpt lat="44.54121" lon="2.61432">
        <ele>526.23</ele>
        <time>2016-03-11T12:00:54Z</time>
      </trkpt>
      <trkpt lat="44.54134" lon="2.61452">
        <ele>509.66</ele>
        <time>2016-03-11T12:01:15Z</time>
      </trkpt>
      <trkpt lat="44.54143" lon="2.61473">
        <ele>496.2</ele>
        <time>2016-03-11T12:01:43Z</time>
      </trkpt>
      <trkpt lat="44.54158" lon="2.61488">
        <ele>498.92</ele>
        <time>2016-03-11T12:01:58Z</time>
      </trkpt>
      <trkpt lat="44.54165" lon="2.61511">
        <ele>500.89</ele>
        <time>2016-03-11T12:02:17Z</time>
      </trkpt>
      <trkpt lat="44.54162" lon="2.61538">
        <ele>497.79</ele>
        <time>2016-03-11T12:02:29Z</time>
      </trkpt>
      <trkpt lat="44.54172" lon="2.6156">
        <ele>496.96</ele>
        <time>2016-03-11T12:02:46Z</time>
      </trkpt>
      <trkpt lat="44.54171" lon="2.61585">
        <ele>501.91</ele>
        <time>2016-03-11T12:02:58Z</time>
      </trkpt>
      <trkpt lat="44.54156" lon="2.61601">
        <ele>514.75</ele>
        <time>2016-03-11T12:03:20Z</time>
      </trkpt>
      <trkpt lat="44.54145" lon="2.61621">
        <ele>506.26</ele>
        <time>2016-03-11T12:03:35Z</time>
      </trkpt>
      <trkpt lat="44.54141" lon="2.61646">
        <ele>504.2</ele>
        <time>2016-03-11T12:03:46Z</time>
      </trkpt>
      <trkpt lat="44.54154" lon="2.61667">
        <ele>497.3</ele>
        <time>2016-03-11T12:04:00Z</time>
      </trkpt>
      <trkpt lat="44.5417" lon="2.61682">
        <ele>504.25</ele>
        <time>2016-03-11T12:04:12Z</time>
      </trkpt>
      <trkpt lat="44.54176" lon="2.61707">
        <ele>500.96</ele>
        <time>2016-03-11T12:04:40Z</time>
      </trkpt>
      <trkpt lat="44.5416" lon="2.61722">
        <ele>505.2</ele>
        <time>2016-03-11T12:05:31Z</time>
      </trkpt>
      <trkpt lat="44.54143" lon="2.61741">
        <ele>511.04</ele>
        <time>2016-03-11T12:05:45Z</time>
      </trkpt>
      <trkpt lat="44.54089" lon="2.6178">
        <ele>504.43</ele>
        <time>2016-03-11T12:06:24Z</time>
      </trkpt>
      <trkpt lat="44.5407" lon="2.6178">
        <ele>493.06</ele>
        <time>2016-03-11T12:06:46Z</time>
      </trkpt>
      <trkpt lat="44.54064" lon="2.61804">
        <ele>510.84</ele>
        <time>2016-03-11T12:09:54Z</time>
      </trkpt>
      <trkpt lat="44.54003" lon="2.61844">
        <ele>501.65</ele>
        <time>2016-03-11T12:11:28Z</time>
      </trkpt>
      <trkpt lat="44.54016" lon="2.61865">
        <ele>510.45</ele>
        <time>2016-03-11T12:11:52Z</time>
      </trkpt>
      <trkpt lat="44.54034" lon="2.61868">
        <ele>516.76</ele>
        <time>2016-03-11T12:12:09Z</time>
      </trkpt>
      <trkpt lat="44.54053" lon="2.61874">
        <ele>517.73</ele>
        <time>2016-03-11T12:12:30Z</time>
      </trkpt>
      <trkpt lat="44.54071" lon="2.61884">
        <ele>517.64</ele>
        <time>2016-03-11T12:12:40Z</time>
      </trkpt>
      <trkpt lat="44.54088" lon="2.61888">
        <ele>517.78</ele>
        <time>2016-03-11T12:12:57Z</time>
      </trkpt>
      <trkpt lat="44.54108" lon="2.61878">
        <ele>517.67</ele>
        <time>2016-03-11T12:13:04Z</time>
      </trkpt>
      <trkpt lat="44.54129" lon="2.61876">
        <ele>515.35</ele>
        <time>2016-03-11T12:13:26Z</time>
      </trkpt>
      <trkpt lat="44.54148" lon="2.61864">
        <ele>514.78</ele>
        <time>2016-03-11T12:13:40Z</time>
      </trkpt>
      <trkpt lat="44.54167" lon="2.61859">
        <ele>511.23</ele>
        <time>2016-03-11T12:14:07Z</time>
      </trkpt>
      <trkpt lat="44.54185" lon="2.61857">
        <ele>510.78</ele>
        <time>2016-03-11T12:14:16Z</time>
      </trkpt>
      <trkpt lat="44.54206" lon="2.61862">
        <ele>510.44</ele>
        <time>2016-03-11T12:14:28Z</time>
      </trkpt>
      <trkpt lat="44.54222" lon="2.61849">
        <ele>510.1</ele>
        <time>2016-03-11T12:14:42Z</time>
      </trkpt>
      <trkpt lat="44.5424" lon="2.61848">
        <ele>510.39</ele>
        <time>2016-03-11T12:15:06Z</time>
      </trkpt>
      <trkpt lat="44.54253" lon="2.61872">
        <ele>509.38</ele>
        <time>2016-03-11T12:15:25Z</time>
      </trkpt>
      <trkpt lat="44.54257" lon="2.619">
        <ele>503.48</ele>
        <time>2016-03-11T12:15:49Z</time>
      </trkpt>
      <trkpt lat="44.54223" lon="2.61953">
        <ele>519.08</ele>
        <time>2016-03-11T12:16:28Z</time>
      </trkpt>
      <trkpt lat="44.54204" lon="2.61958">
        <ele>507.09</ele>
        <time>2016-03-11T12:16:46Z</time>
      </trkpt>
      <trkpt lat="44.54185" lon="2.61965">
        <ele>507.95</ele>
        <time>2016-03-11T12:17:01Z</time>
      </trkpt>
      <trkpt lat="44.54171" lon="2.61994">
        <ele>528.28</ele>
        <time>2016-03-11T12:21:31Z</time>
      </trkpt>
      <trkpt lat="44.54156" lon="2.62011">
        <ele>516.36</ele>
        <time>2016-03-11T12:21:45Z</time>
      </trkpt>
      <trkpt lat="44.54138" lon="2.62017">
        <ele>506.62</ele>
        <time>2016-03-11T12:21:58Z</time>
      </trkpt>
      <trkpt lat="44.54118" lon="2.62035">
        <ele>511.03</ele>
        <time>2016-03-11T12:22:07Z</time>
      </trkpt>
      <trkpt lat="44.54107" lon="2.62058">
        <ele>507.17</ele>
        <time>2016-03-11T12:22:13Z</time>
      </trkpt>
      <trkpt lat="44.54121" lon="2.62075">
        <ele>500.36</ele>
        <time>2016-03-11T12:22:30Z</time>
      </trkpt>
      <trkpt lat="44.5414" lon="2.62069">
        <ele>501.91</ele>
        <time>2016-03-11T12:22:39Z</time>
      </trkpt>
      <trkpt lat="44.54159" lon="2.62074">
        <ele>504.7</ele>
        <time>2016-03-11T12:22:49Z</time>
      </trkpt>
      <trkpt lat="44.54177" lon="2.62062">
        <ele>504.76</ele>
        <time>2016-03-11T12:23:05Z</time>
      </trkpt>
      <trkpt lat="44.54197" lon="2.62067">
        <ele>508.02</ele>
        <time>2016-03-11T12:23:24Z</time>
      </trkpt>
      <trkpt lat="44.54214" lon="2.62086">
        <ele>505.08</ele>
        <time>2016-03-11T12:23:47Z</time>
      </trkpt>
      <trkpt lat="44.54222" lon="2.62111">
        <ele>503.88</ele>
        <time>2016-03-11T12:24:18Z</time>
      </trkpt>
      <trkpt lat="44.54221" lon="2.62137">
        <ele>495.65</ele>
        <time>2016-03-11T12:24:38Z</time>
      </trkpt>
      <trkpt lat="44.5421" lon="2.62159">
        <ele>498.06</ele>
        <time>2016-03-11T12:24:57Z</time>
      </trkpt>
      <trkpt lat="44.54203" lon="2.62183">
        <ele>505.26</ele>
        <time>2016-03-11T12:25:12Z</time>
      </trkpt>
      <trkpt lat="44.54184" lon="2.62187">
        <ele>505.52</ele>
        <time>2016-03-11T12:25:20Z</time>
      </trkpt>
      <trkpt lat="44.54169" lon="2.62205">
        <ele>510.95</ele>
        <time>2016-03-11T12:25:36Z</time>
      </trkpt>
      <trkpt lat="44.54151" lon="2.62218">
        <ele>510.19</ele>
        <time>2016-03-11T12:25:50Z</time>
      </trkpt>
      <trkpt lat="44.54095" lon="2.6225">
        <ele>496.07</ele>
        <time>2016-03-11T12:26:31Z</time>
      </trkpt>
      <trkpt lat="44.54079" lon="2.62269">
        <ele>492.41</ele>
        <time>2016-03-11T12:26:49Z</time>
      </trkpt>
      <trkpt lat="44.54066" lon="2.62286">
        <ele>507.35</ele>
        <time>2016-03-11T12:26:58Z</time>
      </trkpt>
      <trkpt lat="44.54056" lon="2.62311">
        <ele>505.27</ele>
        <time>2016-03-11T12:27:37Z</time>
      </trkpt>
      <trkpt lat="44.5404" lon="2.62331">
        <ele>506.59</ele>
        <time>2016-03-11T12:27:41Z</time>
      </trkpt>
      <trkpt lat="44.54025" lon="2.62352">
        <ele>505.83</ele>
        <time>2016-03-11T12:27:46Z</time>
      </trkpt>
      <trkpt lat="44.54012" lon="2.62375">
        <ele>503.65</ele>
        <time>2016-03-11T12:27:58Z</time>
      </trkpt>
      <trkpt lat="44.54015" lon="2.62403">
        <ele>505.59</ele>
        <time>2016-03-11T12:28:10Z</time>
      </trkpt>
      <trkpt lat="44.54018" lon="2.62428">
        <ele>507.73</ele>
        <time>2016-03-11T12:28:23Z</time>
      </trkpt>
      <trkpt lat="44.54036" lon="2.62419">
        <ele>507.55</ele>
        <time>2016-03-11T12:28:41Z</time>
      </trkpt>
      <trkpt lat="44.54053" lon="2.62407">
        <ele>509.16</ele>
        <time>2016-03-11T12:28:52Z</time>
      </trkpt>
      <trkpt lat="44.54071" lon="2.62407">
        <ele>513.15</ele>
        <time>2016-03-11T12:29:09Z</time>
      </trkpt>
      <trkpt lat="44.54086" lon="2.62423">
        <ele>514.12</ele>
        <time>2016-03-11T12:29:24Z</time>
      </trkpt>
      <trkpt lat="44.54106" lon="2.62423">
        <ele>513.96</ele>
        <time>2016-03-11T12:29:39Z</time>
      </trkpt>
      <trkpt lat="44.54123" lon="2.62414">
        <ele>514.27</ele>
        <time>2016-03-11T12:29:50Z</time>
      </trkpt>
      <trkpt lat="44.54132" lon="2.62392">
        <ele>506.1</ele>
        <time>2016-03-11T12:31:30Z</time>
      </trkpt>
      <trkpt lat="44.54149" lon="2.62377">
        <ele>498.32</ele>
        <time>2016-03-11T12:32:04Z</time>
      </trkpt>
      <trkpt lat="44.54153" lon="2.62403">
        <ele>505.58</ele>
        <time>2016-03-11T12:32:53Z</time>
      </trkpt>
      <trkpt lat="44.54146" lon="2.62428">
        <ele>502.25</ele>
        <time>2016-03-11T12:33:03Z</time>
      </trkpt>
      <trkpt lat="44.54133" lon="2.62446">
        <ele>514.58</ele>
        <time>2016-03-11T12:33:19Z</time>
      </trkpt>
      <trkpt lat="44.54125" lon="2.62469">
        <ele>516.11</ele>
        <time>2016-03-11T12:33:46Z</time>
      </trkpt>
      <trkpt lat="44.54116" lon="2.62494">
        <ele>520.87</ele>
        <time>2016-03-11T12:33:58Z</time>
      </trkpt>
      <trkpt lat="44.5411" lon="2.62519">
        <ele>527.08</ele>
        <time>2016-03-11T12:34:07Z</time>
      </trkpt>
      <trkpt lat="44.54102" lon="2.62542">
        <ele>528.97</ele>
        <time>2016-03-11T12:34:19Z</time>
      </trkpt>
      <trkpt lat="44.541" lon="2.62569">
        <ele>526.1</ele>
        <time>2016-03-11T12:34:35Z</time>
      </trkpt>
      <trkpt lat="44.54089" lon="2.62589">
        <ele>528.31</ele>
        <time>2016-03-11T12:34:50Z</time>
      </trkpt>
      <trkpt lat="44.54078" lon="2.6261">
        <ele>530.62</ele>
        <time>2016-03-11T12:35:07Z</time>
      </trkpt>
      <trkpt lat="44.54067" lon="2.62635">
        <ele>531.42</ele>
        <time>2016-03-11T12:35:25Z</time>
      </trkpt>
      <trkpt lat="44.54056" lon="2.62659">
        <ele>534.04</ele>
        <time>2016-03-11T12:35:47Z</time>
      </trkpt>
      <trkpt lat="44.54024" lon="2.62709">
        <ele>538.11</ele>
        <time>2016-03-11T12:36:31Z</time>
      </trkpt>
      <trkpt lat="44.54012" lon="2.62727">
        <ele>521.84</ele>
        <time>2016-03-11T12:36:53Z</time>
      </trkpt>
      <trkpt lat="44.53996" lon="2.6274">
        <ele>526.03</ele>
        <time>2016-03-11T12:37:11Z</time>
      </trkpt>
      <trkpt lat="44.53981" lon="2.62758">
        <ele>539.39</ele>
        <time>2016-03-11T12:37:25Z</time>
      </trkpt>
      <trkpt lat="44.5397" lon="2.62778">
        <ele>542.5</ele>
        <time>2016-03-11T12:37:38Z</time>
      </trkpt>
      <trkpt lat="44.53955" lon="2.62794">
        <ele>546.97</ele>
        <time>2016-03-11T12:37:54Z</time>
      </trkpt>
      <trkpt lat="44.53939" lon="2.62806">
        <ele>550.68</ele>
        <time>2016-03-11T12:38:17Z</time>
      </trkpt>
      <trkpt lat="44.5392" lon="2.62816">
        <ele>555.06</ele>
        <time>2016-03-11T12:38:39Z</time>
      </trkpt>
      <trkpt lat="44.53902" lon="2.62822">
        <ele>554.68</ele>
        <time>2016-03-11T12:38:54Z</time>
      </trkpt>
      <trkpt lat="44.53884" lon="2.62829">
        <ele>554.48</ele>
        <time>2016-03-11T12:39:08Z</time>
      </trkpt>
      <trkpt lat="44.53866" lon="2.62831">
        <ele>554.84</ele>
        <time>2016-03-11T12:39:23Z</time>
      </trkpt>
      <trkpt lat="44.53848" lon="2.62834">
        <ele>552.63</ele>
        <time>2016-03-11T12:39:35Z</time>
      </trkpt>
      <trkpt lat="44.53829" lon="2.62836">
        <ele>553.49</ele>
        <time>2016-03-11T12:39:51Z</time>
      </trkpt>
      <trkpt lat="44.5381" lon="2.6284">
        <ele>557.58</ele>
        <time>2016-03-11T12:40:06Z</time>
      </trkpt>
      <trkpt lat="44.53791" lon="2.62848">
        <ele>555.4</ele>
        <time>2016-03-11T12:40:20Z</time>
      </trkpt>
      <trkpt lat="44.53772" lon="2.62852">
        <ele>555.72</ele>
        <time>2016-03-11T12:40:34Z</time>
      </trkpt>
      <trkpt lat="44.53754" lon="2.62854">
        <ele>556.23</ele>
        <time>2016-03-11T12:40:50Z</time>
      </trkpt>
      <trkpt lat="44.53729" lon="2.62873">
        <ele>557.12</ele>
        <time>2016-03-11T12:41:30Z</time>
      </trkpt>
      <trkpt lat="44.53731" lon="2.62899">
        <ele>558.78</ele>
        <time>2016-03-11T12:41:41Z</time>
      </trkpt>
      <trkpt lat="44.53734" lon="2.62925">
        <ele>555.27</ele>
        <time>2016-03-11T12:41:57Z</time>
      </trkpt>
      <trkpt lat="44.5374" lon="2.62952">
        <ele>560.68</ele>
        <time>2016-03-11T12:42:14Z</time>
      </trkpt>
      <trkpt lat="44.53741" lon="2.62978">
        <ele>562.55</ele>
        <time>2016-03-11T12:42:30Z</time>
      </trkpt>
      <trkpt lat="44.53748" lon="2.63003">
        <ele>552.79</ele>
        <time>2016-03-11T12:42:52Z</time>
      </trkpt>
      <trkpt lat="44.53754" lon="2.63028">
        <ele>550.26</ele>
        <time>2016-03-11T12:43:07Z</time>
      </trkpt>
      <trkpt lat="44.53763" lon="2.63051">
        <ele>557.23</ele>
        <time>2016-03-11T12:43:21Z</time>
      </trkpt>
      <trkpt lat="44.53774" lon="2.63072">
        <ele>556.52</ele>
        <time>2016-03-11T12:43:36Z</time>
      </trkpt>
      <trkpt lat="44.53786" lon="2.63092">
        <ele>557.09</ele>
        <time>2016-03-11T12:43:54Z</time>
      </trkpt>
      <trkpt lat="44.538" lon="2.63108">
        <ele>558.87</ele>
        <time>2016-03-11T12:44:10Z</time>
      </trkpt>
      <trkpt lat="44.53815" lon="2.63124">
        <ele>555.7</ele>
        <time>2016-03-11T12:44:24Z</time>
      </trkpt>
      <trkpt lat="44.5383" lon="2.6314">
        <ele>559.66</ele>
        <time>2016-03-11T12:44:46Z</time>
      </trkpt>
      <trkpt lat="44.53844" lon="2.6316">
        <ele>562.18</ele>
        <time>2016-03-11T12:45:11Z</time>
      </trkpt>
      <trkpt lat="44.53862" lon="2.63158">
        <ele>556.34</ele>
        <time>2016-03-11T12:45:30Z</time>
      </trkpt>
      <trkpt lat="44.5388" lon="2.63158">
        <ele>556.5</ele>
        <time>2016-03-11T12:45:49Z</time>
      </trkpt>
      <trkpt lat="44.5393" lon="2.63179">
        <ele>554.05</ele>
        <time>2016-03-11T12:46:32Z</time>
      </trkpt>
      <trkpt lat="44.53947" lon="2.63189">
        <ele>553.32</ele>
        <time>2016-03-11T12:46:51Z</time>
      </trkpt>
      <trkpt lat="44.53962" lon="2.63204">
        <ele>555.25</ele>
        <time>2016-03-11T12:47:14Z</time>
      </trkpt>
      <trkpt lat="44.5398" lon="2.63205">
        <ele>547.65</ele>
        <time>2016-03-11T12:47:27Z</time>
      </trkpt>
      <trkpt lat="44.53998" lon="2.63195">
        <ele>542.43</ele>
        <time>2016-03-11T12:47:43Z</time>
      </trkpt>
      <trkpt lat="44.54009" lon="2.63174">
        <ele>547.05</ele>
        <time>2016-03-11T12:47:56Z</time>
      </trkpt>
      <trkpt lat="44.54011" lon="2.63149">
        <ele>543</ele>
        <time>2016-03-11T12:48:19Z</time>
      </trkpt>
      <trkpt lat="44.54022" lon="2.63129">
        <ele>542.18</ele>
        <time>2016-03-11T12:48:29Z</time>
      </trkpt>
      <trkpt lat="44.54039" lon="2.6312">
        <ele>540.94</ele>
        <time>2016-03-11T12:48:44Z</time>
      </trkpt>
      <trkpt lat="44.54055" lon="2.63109">
        <ele>534.74</ele>
        <time>2016-03-11T12:49:04Z</time>
      </trkpt>
      <trkpt lat="44.54068" lon="2.63091">
        <ele>531.16</ele>
        <time>2016-03-11T12:49:23Z</time>
      </trkpt>
      <trkpt lat="44.54082" lon="2.63072">
        <ele>530.58</ele>
        <time>2016-03-11T12:49:35Z</time>
      </trkpt>
      <trkpt lat="44.54093" lon="2.63051">
        <ele>528.35</ele>
        <time>2016-03-11T12:49:48Z</time>
      </trkpt>
      <trkpt lat="44.54093" lon="2.63024">
        <ele>526.61</ele>
        <time>2016-03-11T12:50:02Z</time>
      </trkpt>
      <trkpt lat="44.5409" lon="2.62999">
        <ele>525.38</ele>
        <time>2016-03-11T12:50:18Z</time>
      </trkpt>
      <trkpt lat="44.54103" lon="2.62978">
        <ele>527.41</ele>
        <time>2016-03-11T12:50:29Z</time>
      </trkpt>
      <trkpt lat="44.5412" lon="2.62962">
        <ele>530.85</ele>
        <time>2016-03-11T12:50:52Z</time>
      </trkpt>
      <trkpt lat="44.54133" lon="2.63018">
        <ele>518.89</ele>
        <time>2016-03-11T12:51:32Z</time>
      </trkpt>
      <trkpt lat="44.54137" lon="2.63045">
        <ele>517.06</ele>
        <time>2016-03-11T12:51:48Z</time>
      </trkpt>
      <trkpt lat="44.54138" lon="2.63074">
        <ele>518.06</ele>
        <time>2016-03-11T12:52:04Z</time>
      </trkpt>
      <trkpt lat="44.54146" lon="2.63097">
        <ele>514.19</ele>
        <time>2016-03-11T12:52:20Z</time>
      </trkpt>
      <trkpt lat="44.5416" lon="2.63115">
        <ele>513.07</ele>
        <time>2016-03-11T12:52:59Z</time>
      </trkpt>
      <trkpt lat="44.54179" lon="2.63121">
        <ele>514.18</ele>
        <time>2016-03-11T12:53:13Z</time>
      </trkpt>
      <trkpt lat="44.54197" lon="2.63125">
        <ele>513.66</ele>
        <time>2016-03-11T12:54:34Z</time>
      </trkpt>
      <trkpt lat="44.54212" lon="2.6314">
        <ele>518.83</ele>
        <time>2016-03-11T12:54:45Z</time>
      </trkpt>
      <trkpt lat="44.54228" lon="2.63153">
        <ele>515.62</ele>
        <time>2016-03-11T12:55:00Z</time>
      </trkpt>
      <trkpt lat="44.54244" lon="2.63166">
        <ele>513.4</ele>
        <time>2016-03-11T12:55:18Z</time>
      </trkpt>
      <trkpt lat="44.54257" lon="2.63188">
        <ele>519.79</ele>
        <time>2016-03-11T12:55:34Z</time>
      </trkpt>
      <trkpt lat="44.54275" lon="2.63191">
        <ele>520.76</ele>
        <time>2016-03-11T12:55:51Z</time>
      </trkpt>
      <trkpt lat="44.54293" lon="2.632">
        <ele>516.88</ele>
        <time>2016-03-11T12:56:33Z</time>
      </trkpt>
      <trkpt lat="44.54312" lon="2.63203">
        <ele>525.3</ele>
        <time>2016-03-11T12:56:41Z</time>
      </trkpt>
      <trkpt lat="44.54331" lon="2.63207">
        <ele>531.94</ele>
        <time>2016-03-11T12:56:54Z</time>
      </trkpt>
      <trkpt lat="44.54349" lon="2.63207">
        <ele>537.32</ele>
        <time>2016-03-11T12:57:12Z</time>
      </trkpt>
      <trkpt lat="44.54367" lon="2.63212">
        <ele>536.87</ele>
        <time>2016-03-11T12:57:27Z</time>
      </trkpt>
      <trkpt lat="44.54386" lon="2.63219">
        <ele>538.09</ele>
        <time>2016-03-11T12:57:43Z</time>
      </trkpt>
      <trkpt lat="44.54405" lon="2.63224">
        <ele>544.46</ele>
        <time>2016-03-11T12:58:07Z</time>
      </trkpt>
      <trkpt lat="44.54423" lon="2.63228">
        <ele>546.51</ele>
        <time>2016-03-11T12:58:23Z</time>
      </trkpt>
      <trkpt lat="44.54442" lon="2.63226">
        <ele>541.22</ele>
        <time>2016-03-11T12:58:34Z</time>
      </trkpt>
      <trkpt lat="44.54461" lon="2.63232">
        <ele>540.03</ele>
        <time>2016-03-11T12:58:49Z</time>
      </trkpt>
      <trkpt lat="44.54473" lon="2.6321">
        <ele>546.6</ele>
        <time>2016-03-11T12:59:55Z</time>
      </trkpt>
      <trkpt lat="44.54462" lon="2.63189">
        <ele>547.34</ele>
        <time>2016-03-11T13:00:08Z</time>
      </trkpt>
      <trkpt lat="44.54455" lon="2.63165">
        <ele>547.43</ele>
        <time>2016-03-11T13:00:20Z</time>
      </trkpt>
      <trkpt lat="44.54447" lon="2.63141">
        <ele>544.66</ele>
        <time>2016-03-11T13:00:36Z</time>
      </trkpt>
      <trkpt lat="44.54438" lon="2.63118">
        <ele>543.37</ele>
        <time>2016-03-11T13:00:50Z</time>
      </trkpt>
      <trkpt lat="44.54418" lon="2.63051">
        <ele>548.83</ele>
        <time>2016-03-11T13:01:32Z</time>
      </trkpt>
      <trkpt lat="44.54425" lon="2.63027">
        <ele>552.28</ele>
        <time>2016-03-11T13:02:00Z</time>
      </trkpt>
      <trkpt lat="44.54437" lon="2.63007">
        <ele>559.82</ele>
        <time>2016-03-11T13:05:34Z</time>
      </trkpt>
      <trkpt lat="44.54448" lon="2.62987">
        <ele>560.09</ele>
        <time>2016-03-11T13:05:45Z</time>
      </trkpt>
      <trkpt lat="44.54455" lon="2.62962">
        <ele>561.3</ele>
        <time>2016-03-11T13:05:58Z</time>
      </trkpt>
      <trkpt lat="44.54459" lon="2.62896">
        <ele>557.79</ele>
        <time>2016-03-11T13:06:34Z</time>
      </trkpt>
      <trkpt lat="44.54448" lon="2.62874">
        <ele>561.98</ele>
        <time>2016-03-11T13:06:49Z</time>
      </trkpt>
      <trkpt lat="44.54439" lon="2.6285">
        <ele>557.69</ele>
        <time>2016-03-11T13:07:06Z</time>
      </trkpt>
      <trkpt lat="44.5443" lon="2.62828">
        <ele>555.32</ele>
        <time>2016-03-11T13:07:18Z</time>
      </trkpt>
      <trkpt lat="44.54418" lon="2.62809">
        <ele>553.29</ele>
        <time>2016-03-11T13:07:34Z</time>
      </trkpt>
      <trkpt lat="44.54407" lon="2.62789">
        <ele>551.05</ele>
        <time>2016-03-11T13:07:46Z</time>
      </trkpt>
      <trkpt lat="44.54394" lon="2.6277">
        <ele>553.95</ele>
        <time>2016-03-11T13:08:05Z</time>
      </trkpt>
      <trkpt lat="44.54388" lon="2.62744">
        <ele>549.37</ele>
        <time>2016-03-11T13:08:20Z</time>
      </trkpt>
      <trkpt lat="44.5439" lon="2.62718">
        <ele>552.85</ele>
        <time>2016-03-11T13:08:36Z</time>
      </trkpt>
      <trkpt lat="44.54394" lon="2.62691">
        <ele>540.25</ele>
        <time>2016-03-11T13:08:57Z</time>
      </trkpt>
      <trkpt lat="44.54405" lon="2.62672">
        <ele>529.28</ele>
        <time>2016-03-11T13:09:11Z</time>
      </trkpt>
      <trkpt lat="44.54417" lon="2.62652">
        <ele>530.42</ele>
        <time>2016-03-11T13:09:28Z</time>
      </trkpt>
      <trkpt lat="44.54432" lon="2.62633">
        <ele>535.66</ele>
        <time>2016-03-11T13:09:36Z</time>
      </trkpt>
      <trkpt lat="44.54437" lon="2.62609">
        <ele>538.07</ele>
        <time>2016-03-11T13:09:53Z</time>
      </trkpt>
      <trkpt lat="44.54449" lon="2.62588">
        <ele>541.78</ele>
        <time>2016-03-11T13:10:03Z</time>
      </trkpt>
      <trkpt lat="44.54458" lon="2.62565">
        <ele>548.82</ele>
        <time>2016-03-11T13:10:22Z</time>
      </trkpt>
      <trkpt lat="44.54464" lon="2.62539">
        <ele>545.12</ele>
        <time>2016-03-11T13:10:39Z</time>
      </trkpt>
      <trkpt lat="44.54475" lon="2.62517">
        <ele>547.01</ele>
        <time>2016-03-11T13:10:56Z</time>
      </trkpt>
      <trkpt lat="44.54477" lon="2.62445">
        <ele>534.56</ele>
        <time>2016-03-11T13:11:34Z</time>
      </trkpt>
      <trkpt lat="44.5448" lon="2.62419">
        <ele>540.41</ele>
        <time>2016-03-11T13:11:45Z</time>
      </trkpt>
      <trkpt lat="44.54485" lon="2.62393">
        <ele>536.47</ele>
        <time>2016-03-11T13:12:02Z</time>
      </trkpt>
      <trkpt lat="44.54492" lon="2.62368">
        <ele>537.67</ele>
        <time>2016-03-11T13:12:22Z</time>
      </trkpt>
      <trkpt lat="44.54504" lon="2.62349">
        <ele>537.3</ele>
        <time>2016-03-11T13:12:32Z</time>
      </trkpt>
      <trkpt lat="44.54515" lon="2.62325">
        <ele>538.67</ele>
        <time>2016-03-11T13:12:46Z</time>
      </trkpt>
      <trkpt lat="44.54518" lon="2.62299">
        <ele>535</ele>
        <time>2016-03-11T13:13:05Z</time>
      </trkpt>
      <trkpt lat="44.5452" lon="2.62272">
        <ele>536.78</ele>
        <time>2016-03-11T13:13:22Z</time>
      </trkpt>
      <trkpt lat="44.54524" lon="2.62248">
        <ele>530.52</ele>
        <time>2016-03-11T13:13:40Z</time>
      </trkpt>
      <trkpt lat="44.54526" lon="2.62222">
        <ele>529.18</ele>
        <time>2016-03-11T13:13:55Z</time>
      </trkpt>
      <trkpt lat="44.54534" lon="2.62198">
        <ele>527.58</ele>
        <time>2016-03-11T13:14:09Z</time>
      </trkpt>
      <trkpt lat="44.54544" lon="2.62176">
        <ele>524.96</ele>
        <time>2016-03-11T13:14:28Z</time>
      </trkpt>
      <trkpt lat="44.54554" lon="2.62154">
        <ele>528.63</ele>
        <time>2016-03-11T13:14:40Z</time>
      </trkpt>
      <trkpt lat="44.54569" lon="2.62137">
        <ele>524.83</ele>
        <time>2016-03-11T13:14:53Z</time>
      </trkpt>
      <trkpt lat="44.54579" lon="2.62112">
        <ele>521.88</ele>
        <time>2016-03-11T13:15:12Z</time>
      </trkpt>
      <trkpt lat="44.54598" lon="2.62104">
        <ele>521.76</ele>
        <time>2016-03-11T13:15:32Z</time>
      </trkpt>
      <trkpt lat="44.54616" lon="2.621">
        <ele>509.49</ele>
        <time>2016-03-11T13:15:46Z</time>
      </trkpt>
      <trkpt lat="44.54634" lon="2.62106">
        <ele>511.39</ele>
        <time>2016-03-11T13:16:02Z</time>
      </trkpt>
      <trkpt lat="44.54653" lon="2.62106">
        <ele>508.14</ele>
        <time>2016-03-11T13:16:19Z</time>
      </trkpt>
      <trkpt lat="44.54671" lon="2.6211">
        <ele>513.04</ele>
        <time>2016-03-11T13:16:45Z</time>
      </trkpt>
      <trkpt lat="44.54688" lon="2.62102">
        <ele>507.91</ele>
        <time>2016-03-11T13:16:55Z</time>
      </trkpt>
      <trkpt lat="44.54707" lon="2.62106">
        <ele>506.98</ele>
        <time>2016-03-11T13:17:08Z</time>
      </trkpt>
      <trkpt lat="44.54722" lon="2.62093">
        <ele>495.98</ele>
        <time>2016-03-11T13:17:26Z</time>
      </trkpt>
      <trkpt lat="44.54741" lon="2.62091">
        <ele>500.06</ele>
        <time>2016-03-11T13:17:47Z</time>
      </trkpt>
      <trkpt lat="44.54759" lon="2.62089">
        <ele>499.05</ele>
        <time>2016-03-11T13:18:02Z</time>
      </trkpt>
      <trkpt lat="44.54777" lon="2.62077">
        <ele>494.44</ele>
        <time>2016-03-11T13:18:13Z</time>
      </trkpt>
      <trkpt lat="44.54788" lon="2.62054">
        <ele>490.11</ele>
        <time>2016-03-11T13:18:24Z</time>
      </trkpt>
      <trkpt lat="44.54801" lon="2.62033">
        <ele>487.51</ele>
        <time>2016-03-11T13:18:40Z</time>
      </trkpt>
      <trkpt lat="44.548" lon="2.62008">
        <ele>488.43</ele>
        <time>2016-03-11T13:18:49Z</time>
      </trkpt>
      <trkpt lat="44.54811" lon="2.61987">
        <ele>485.5</ele>
        <time>2016-03-11T13:19:03Z</time>
      </trkpt>
      <trkpt lat="44.54824" lon="2.61968">
        <ele>480.29</ele>
        <time>2016-03-11T13:19:25Z</time>
      </trkpt>
      <trkpt lat="44.54843" lon="2.61955">
        <ele>483.18</ele>
        <time>2016-03-11T13:19:34Z</time>
      </trkpt>
      <trkpt lat="44.54835" lon="2.61928">
        <ele>481.51</ele>
        <time>2016-03-11T13:19:45Z</time>
      </trkpt>
      <trkpt lat="44.54818" lon="2.61912">
        <ele>474.22</ele>
        <time>2016-03-11T13:20:01Z</time>
      </trkpt>
      <trkpt lat="44.54814" lon="2.61887">
        <ele>472.12</ele>
        <time>2016-03-11T13:20:14Z</time>
      </trkpt>
      <trkpt lat="44.54796" lon="2.6188">
        <ele>465.01</ele>
        <time>2016-03-11T13:20:26Z</time>
      </trkpt>
      <trkpt lat="44.54781" lon="2.61865">
        <ele>463.97</ele>
        <time>2016-03-11T13:20:41Z</time>
      </trkpt>
      <trkpt lat="44.54766" lon="2.61849">
        <ele>458.93</ele>
        <time>2016-03-11T13:20:54Z</time>
      </trkpt>
      <trkpt lat="44.54747" lon="2.61839">
        <ele>451.6</ele>
        <time>2016-03-11T13:21:19Z</time>
      </trkpt>
      <trkpt lat="44.54733" lon="2.61854">
        <ele>453.6</ele>
        <time>2016-03-11T13:21:27Z</time>
      </trkpt>
      <trkpt lat="44.54724" lon="2.61832">
        <ele>460.05</ele>
        <time>2016-03-11T13:21:54Z</time>
      </trkpt>
      <trkpt lat="44.54716" lon="2.61809">
        <ele>459.5</ele>
        <time>2016-03-11T13:22:10Z</time>
      </trkpt>
      <trkpt lat="44.54729" lon="2.61787">
        <ele>457.27</ele>
        <time>2016-03-11T13:25:49Z</time>
      </trkpt>
      <trkpt lat="44.54712" lon="2.61767">
        <ele>455.11</ele>
        <time>2016-03-11T13:25:51Z</time>
      </trkpt>
      <trkpt lat="44.54698" lon="2.61744">
        <ele>453.76</ele>
        <time>2016-03-11T13:25:55Z</time>
      </trkpt>
      <trkpt lat="44.547" lon="2.61718">
        <ele>459.49</ele>
        <time>2016-03-11T13:26:04Z</time>
      </trkpt>
      <trkpt lat="44.54706" lon="2.61694">
        <ele>474.2</ele>
        <time>2016-03-11T13:26:34Z</time>
      </trkpt>
      <trkpt lat="44.54714" lon="2.61664">
        <ele>477.61</ele>
        <time>2016-03-11T13:27:04Z</time>
      </trkpt>
      <trkpt lat="44.54731" lon="2.61645">
        <ele>487.27</ele>
        <time>2016-03-11T13:27:54Z</time>
      </trkpt>
      <trkpt lat="44.54741" lon="2.61623">
        <ele>492.2</ele>
        <time>2016-03-11T13:28:03Z</time>
      </trkpt>
      <trkpt lat="44.54756" lon="2.61603">
        <ele>498.3</ele>
        <time>2016-03-11T13:28:20Z</time>
      </trkpt>
      <trkpt lat="44.54774" lon="2.61609">
        <ele>500.48</ele>
        <time>2016-03-11T13:28:50Z</time>
      </trkpt>
      <trkpt lat="44.54785" lon="2.6163">
        <ele>498.37</ele>
        <time>2016-03-11T13:29:11Z</time>
      </trkpt>
      <trkpt lat="44.54804" lon="2.61629">
        <ele>492.33</ele>
        <time>2016-03-11T13:29:38Z</time>
      </trkpt>
      <trkpt lat="44.54795" lon="2.61603">
        <ele>496.5</ele>
        <time>2016-03-11T13:30:49Z</time>
      </trkpt>
      <trkpt lat="44.5479" lon="2.61577">
        <ele>494.59</ele>
        <time>2016-03-11T13:30:56Z</time>
      </trkpt>
      <trkpt lat="44.54791" lon="2.6155">
        <ele>497.73</ele>
        <time>2016-03-11T13:31:10Z</time>
      </trkpt>
      <trkpt lat="44.54774" lon="2.6154">
        <ele>491.23</ele>
        <time>2016-03-11T13:31:40Z</time>
      </trkpt>
      <trkpt lat="44.54758" lon="2.61527">
        <ele>490.38</ele>
        <time>2016-03-11T13:31:50Z</time>
      </trkpt>
      <trkpt lat="44.54751" lon="2.61501">
        <ele>493.27</ele>
        <time>2016-03-11T13:31:56Z</time>
      </trkpt>
      <trkpt lat="44.54733" lon="2.615">
        <ele>490.6</ele>
        <time>2016-03-11T13:32:09Z</time>
      </trkpt>
      <trkpt lat="44.54738" lon="2.61475">
        <ele>500.97</ele>
        <time>2016-03-11T13:32:52Z</time>
      </trkpt>
      <trkpt lat="44.54754" lon="2.61459">
        <ele>505.98</ele>
        <time>2016-03-11T13:33:09Z</time>
      </trkpt>
      <trkpt lat="44.54771" lon="2.61447">
        <ele>513.49</ele>
        <time>2016-03-11T13:33:42Z</time>
      </trkpt>
      <trkpt lat="44.54779" lon="2.6142">
        <ele>510.58</ele>
        <time>2016-03-11T13:34:55Z</time>
      </trkpt>
      <trkpt lat="44.54775" lon="2.61395">
        <ele>510.37</ele>
        <time>2016-03-11T13:35:02Z</time>
      </trkpt>
      <trkpt lat="44.54781" lon="2.61371">
        <ele>510.2</ele>
        <time>2016-03-11T13:35:33Z</time>
      </trkpt>
      <trkpt lat="44.548" lon="2.61369">
        <ele>503.82</ele>
        <time>2016-03-11T13:36:21Z</time>
      </trkpt>
      <trkpt lat="44.54818" lon="2.61377">
        <ele>508.18</ele>
        <time>2016-03-11T13:36:47Z</time>
      </trkpt>
      <trkpt lat="44.54801" lon="2.61337">
        <ele>503.62</ele>
        <time>2016-03-11T13:39:06Z</time>
      </trkpt>
      <trkpt lat="44.54789" lon="2.61312">
        <ele>498.51</ele>
        <time>2016-03-11T13:39:09Z</time>
      </trkpt>
      <trkpt lat="44.5478" lon="2.61286">
        <ele>496.27</ele>
        <time>2016-03-11T13:39:13Z</time>
      </trkpt>
      <trkpt lat="44.54779" lon="2.61261">
        <ele>495.05</ele>
        <time>2016-03-11T13:39:17Z</time>
      </trkpt>
      <trkpt lat="44.54776" lon="2.61233">
        <ele>491.27</ele>
        <time>2016-03-11T13:39:23Z</time>
      </trkpt>
      <trkpt lat="44.54772" lon="2.61208">
        <ele>496.9</ele>
        <time>2016-03-11T13:39:29Z</time>
      </trkpt>
      <trkpt lat="44.5479" lon="2.6121">
        <ele>503.3</ele>
        <time>2016-03-11T13:39:56Z</time>
      </trkpt>
      <trkpt lat="44.54794" lon="2.61236">
        <ele>501.64</ele>
        <time>2016-03-11T13:40:21Z</time>
      </trkpt>
      <trkpt lat="44.54808" lon="2.61253">
        <ele>498.24</ele>
        <time>2016-03-11T13:40:39Z</time>
      </trkpt>
      <trkpt lat="44.54826" lon="2.61249">
        <ele>497.54</ele>
        <time>2016-03-11T13:40:48Z</time>
      </trkpt>
      <trkpt lat="44.54815" lon="2.6127">
        <ele>501.33</ele>
        <time>2016-03-11T13:41:02Z</time>
      </trkpt>
      <trkpt lat="44.54829" lon="2.6129">
        <ele>509.93</ele>
        <time>2016-03-11T13:41:37Z</time>
      </trkpt>
      <trkpt lat="44.54847" lon="2.61284">
        <ele>509.53</ele>
        <time>2016-03-11T13:41:47Z</time>
      </trkpt>
      <trkpt lat="44.54865" lon="2.61294">
        <ele>518.34</ele>
        <time>2016-03-11T13:41:59Z</time>
      </trkpt>
      <trkpt lat="44.54882" lon="2.6128">
        <ele>523.09</ele>
        <time>2016-03-11T13:42:25Z</time>
      </trkpt>
      <trkpt lat="44.54901" lon="2.61276">
        <ele>525.75</ele>
        <time>2016-03-11T13:42:35Z</time>
      </trkpt>
      <trkpt lat="44.54916" lon="2.61261">
        <ele>532.72</ele>
        <time>2016-03-11T13:43:24Z</time>
      </trkpt>
      <trkpt lat="44.54934" lon="2.61248">
        <ele>530.07</ele>
        <time>2016-03-11T13:43:38Z</time>
      </trkpt>
      <trkpt lat="44.54949" lon="2.61236">
        <ele>528.4</ele>
        <time>2016-03-11T13:43:49Z</time>
      </trkpt>
      <trkpt lat="44.54964" lon="2.61219">
        <ele>530.67</ele>
        <time>2016-03-11T13:44:05Z</time>
      </trkpt>
      <trkpt lat="44.54977" lon="2.612">
        <ele>536.71</ele>
        <time>2016-03-11T13:44:21Z</time>
      </trkpt>
      <trkpt lat="44.54986" lon="2.61177">
        <ele>540.71</ele>
        <time>2016-03-11T13:44:32Z</time>
      </trkpt>
      <trkpt lat="44.54993" lon="2.61153">
        <ele>549.07</ele>
        <time>2016-03-11T13:45:02Z</time>
      </trkpt>
      <trkpt lat="44.55005" lon="2.61127">
        <ele>548.3</ele>
        <time>2016-03-11T13:45:57Z</time>
      </trkpt>
      <trkpt lat="44.55049" lon="2.61123">
        <ele>547.28</ele>
        <time>2016-03-11T13:46:36Z</time>
      </trkpt>
      <trkpt lat="44.55066" lon="2.61135">
        <ele>555.77</ele>
        <time>2016-03-11T13:47:03Z</time>
      </trkpt>
      <trkpt lat="44.55084" lon="2.61131">
        <ele>549.64</ele>
        <time>2016-03-11T13:47:28Z</time>
      </trkpt>
      <trkpt lat="44.55104" lon="2.61125">
        <ele>546.31</ele>
        <time>2016-03-11T13:47:37Z</time>
      </trkpt>
      <trkpt lat="44.55121" lon="2.61117">
        <ele>544.32</ele>
        <time>2016-03-11T13:47:47Z</time>
      </trkpt>
      <trkpt lat="44.55136" lon="2.61103">
        <ele>543.78</ele>
        <time>2016-03-11T13:48:03Z</time>
      </trkpt>
      <trkpt lat="44.55152" lon="2.61089">
        <ele>545.79</ele>
        <time>2016-03-11T13:48:23Z</time>
      </trkpt>
      <trkpt lat="44.55162" lon="2.61067">
        <ele>549.63</ele>
        <time>2016-03-11T13:48:38Z</time>
      </trkpt>
      <trkpt lat="44.55166" lon="2.6104">
        <ele>550.76</ele>
        <time>2016-03-11T13:48:56Z</time>
      </trkpt>
      <trkpt lat="44.55167" lon="2.61014">
        <ele>546.16</ele>
        <time>2016-03-11T13:49:13Z</time>
      </trkpt>
      <trkpt lat="44.55168" lon="2.60988">
        <ele>545.94</ele>
        <time>2016-03-11T13:49:26Z</time>
      </trkpt>
      <trkpt lat="44.55168" lon="2.60962">
        <ele>540.25</ele>
        <time>2016-03-11T13:49:42Z</time>
      </trkpt>
      <trkpt lat="44.55163" lon="2.60936">
        <ele>541.51</ele>
        <time>2016-03-11T13:50:02Z</time>
      </trkpt>
      <trkpt lat="44.55156" lon="2.60913">
        <ele>537.72</ele>
        <time>2016-03-11T13:50:16Z</time>
      </trkpt>
      <trkpt lat="44.55148" lon="2.60887">
        <ele>542.21</ele>
        <time>2016-03-11T13:50:27Z</time>
      </trkpt>
      <trkpt lat="44.5514" lon="2.6086">
        <ele>539.51</ele>
        <time>2016-03-11T13:50:57Z</time>
      </trkpt>
      <trkpt lat="44.55136" lon="2.60835">
        <ele>533.97</ele>
        <time>2016-03-11T13:51:13Z</time>
      </trkpt>
      <trkpt lat="44.55127" lon="2.60809">
        <ele>531.94</ele>
        <time>2016-03-11T13:51:44Z</time>
      </trkpt>
      <trkpt lat="44.55125" lon="2.60783">
        <ele>527.95</ele>
        <time>2016-03-11T13:51:55Z</time>
      </trkpt>
      <trkpt lat="44.55121" lon="2.60757">
        <ele>529.62</ele>
        <time>2016-03-11T13:52:12Z</time>
      </trkpt>
      <trkpt lat="44.55109" lon="2.60735">
        <ele>520.05</ele>
        <time>2016-03-11T13:52:29Z</time>
      </trkpt>
      <trkpt lat="44.55094" lon="2.60717">
        <ele>513.41</ele>
        <time>2016-03-11T13:52:43Z</time>
      </trkpt>
      <trkpt lat="44.55099" lon="2.6069">
        <ele>517.14</ele>
        <time>2016-03-11T13:53:50Z</time>
      </trkpt>
      <trkpt lat="44.55114" lon="2.60671">
        <ele>519.44</ele>
        <time>2016-03-11T13:53:57Z</time>
      </trkpt>
      <trkpt lat="44.55121" lon="2.60647">
        <ele>529.65</ele>
        <time>2016-03-11T13:54:12Z</time>
      </trkpt>
      <trkpt lat="44.55121" lon="2.60619">
        <ele>533.54</ele>
        <time>2016-03-11T13:54:34Z</time>
      </trkpt>
      <trkpt lat="44.55122" lon="2.60594">
        <ele>530.2</ele>
        <time>2016-03-11T13:54:46Z</time>
      </trkpt>
      <trkpt lat="44.55119" lon="2.60568">
        <ele>534.87</ele>
        <time>2016-03-11T13:55:11Z</time>
      </trkpt>
      <trkpt lat="44.5512" lon="2.60542">
        <ele>523.34</ele>
        <time>2016-03-11T13:55:35Z</time>
      </trkpt>
      <trkpt lat="44.55124" lon="2.60517">
        <ele>520.61</ele>
        <time>2016-03-11T13:55:51Z</time>
      </trkpt>
      <trkpt lat="44.55127" lon="2.60491">
        <ele>529.86</ele>
        <time>2016-03-11T13:56:25Z</time>
      </trkpt>
      <trkpt lat="44.55117" lon="2.60468">
        <ele>528.71</ele>
        <time>2016-03-11T13:56:45Z</time>
      </trkpt>
      <trkpt lat="44.55123" lon="2.60444">
        <ele>540.71</ele>
        <time>2016-03-11T13:57:19Z</time>
      </trkpt>
      <trkpt lat="44.55134" lon="2.60424">
        <ele>541.2</ele>
        <time>2016-03-11T13:57:52Z</time>
      </trkpt>
      <trkpt lat="44.55137" lon="2.60397">
        <ele>540.12</ele>
        <time>2016-03-11T13:58:03Z</time>
      </trkpt>
      <trkpt lat="44.55144" lon="2.60372">
        <ele>532.77</ele>
        <time>2016-03-11T13:58:16Z</time>
      </trkpt>
      <trkpt lat="44.55155" lon="2.60351">
        <ele>530.41</ele>
        <time>2016-03-11T13:58:38Z</time>
      </trkpt>
      <trkpt lat="44.5516" lon="2.60327">
        <ele>533.88</ele>
        <time>2016-03-11T13:58:48Z</time>
      </trkpt>
      <trkpt lat="44.55173" lon="2.60308">
        <ele>543.95</ele>
        <time>2016-03-11T13:59:40Z</time>
      </trkpt>
      <trkpt lat="44.5517" lon="2.60283">
        <ele>548.45</ele>
        <time>2016-03-11T14:00:04Z</time>
      </trkpt>
      <trkpt lat="44.55163" lon="2.60258">
        <ele>550.97</ele>
        <time>2016-03-11T14:00:23Z</time>
      </trkpt>
      <trkpt lat="44.55164" lon="2.60182">
        <ele>557.97</ele>
        <time>2016-03-11T14:01:11Z</time>
      </trkpt>
      <trkpt lat="44.55176" lon="2.60161">
        <ele>569.04</ele>
        <time>2016-03-11T14:01:30Z</time>
      </trkpt>
      <trkpt lat="44.55189" lon="2.60143">
        <ele>570.34</ele>
        <time>2016-03-11T14:01:46Z</time>
      </trkpt>
      <trkpt lat="44.55201" lon="2.60122">
        <ele>570.56</ele>
        <time>2016-03-11T14:02:02Z</time>
      </trkpt>
      <trkpt lat="44.55219" lon="2.60106">
        <ele>568.01</ele>
        <time>2016-03-11T14:02:20Z</time>
      </trkpt>
      <trkpt lat="44.55234" lon="2.60092">
        <ele>568.29</ele>
        <time>2016-03-11T14:02:34Z</time>
      </trkpt>
      <trkpt lat="44.55252" lon="2.60083">
        <ele>569.56</ele>
        <time>2016-03-11T14:02:50Z</time>
      </trkpt>
      <trkpt lat="44.55269" lon="2.60073">
        <ele>575.48</ele>
        <time>2016-03-11T14:03:08Z</time>
      </trkpt>
      <trkpt lat="44.55285" lon="2.60059">
        <ele>581.88</ele>
        <time>2016-03-11T14:03:25Z</time>
      </trkpt>
      <trkpt lat="44.55299" lon="2.60043">
        <ele>574.74</ele>
        <time>2016-03-11T14:04:45Z</time>
      </trkpt>
      <trkpt lat="44.55316" lon="2.60029">
        <ele>586.45</ele>
        <time>2016-03-11T14:05:23Z</time>
      </trkpt>
      <trkpt lat="44.55326" lon="2.60008">
        <ele>586.75</ele>
        <time>2016-03-11T14:06:13Z</time>
      </trkpt>
      <trkpt lat="44.55347" lon="2.59995">
        <ele>585.7</ele>
        <time>2016-03-11T14:06:15Z</time>
      </trkpt>
      <trkpt lat="44.55359" lon="2.59976">
        <ele>586.61</ele>
        <time>2016-03-11T14:06:19Z</time>
      </trkpt>
      <trkpt lat="44.55374" lon="2.59961">
        <ele>581.33</ele>
        <time>2016-03-11T14:06:31Z</time>
      </trkpt>
      <trkpt lat="44.55386" lon="2.5994">
        <ele>579.63</ele>
        <time>2016-03-11T14:06:47Z</time>
      </trkpt>
      <trkpt lat="44.55403" lon="2.59927">
        <ele>578.62</ele>
        <time>2016-03-11T14:07:04Z</time>
      </trkpt>
      <trkpt lat="44.55422" lon="2.5992">
        <ele>588.05</ele>
        <time>2016-03-11T14:07:38Z</time>
      </trkpt>
      <trkpt lat="44.55438" lon="2.5991">
        <ele>591.71</ele>
        <time>2016-03-11T14:07:51Z</time>
      </trkpt>
      <trkpt lat="44.55456" lon="2.599">
        <ele>594.85</ele>
        <time>2016-03-11T14:08:06Z</time>
      </trkpt>
      <trkpt lat="44.55474" lon="2.59892">
        <ele>598.45</ele>
        <time>2016-03-11T14:08:21Z</time>
      </trkpt>
      <trkpt lat="44.55491" lon="2.59883">
        <ele>602.2</ele>
        <time>2016-03-11T14:08:37Z</time>
      </trkpt>
      <trkpt lat="44.55509" lon="2.59871">
        <ele>603.48</ele>
        <time>2016-03-11T14:08:52Z</time>
      </trkpt>
      <trkpt lat="44.55525" lon="2.59862">
        <ele>602.54</ele>
        <time>2016-03-11T14:09:06Z</time>
      </trkpt>
      <trkpt lat="44.55543" lon="2.59855">
        <ele>604.77</ele>
        <time>2016-03-11T14:09:18Z</time>
      </trkpt>
      <trkpt lat="44.55561" lon="2.59848">
        <ele>605.93</ele>
        <time>2016-03-11T14:09:35Z</time>
      </trkpt>
      <trkpt lat="44.55578" lon="2.59834">
        <ele>607.83</ele>
        <time>2016-03-11T14:10:03Z</time>
      </trkpt>
      <trkpt lat="44.55596" lon="2.5983">
        <ele>610.55</ele>
        <time>2016-03-11T14:10:17Z</time>
      </trkpt>
      <trkpt lat="44.55648" lon="2.59813">
        <ele>607.67</ele>
        <time>2016-03-11T14:11:13Z</time>
      </trkpt>
      <trkpt lat="44.55666" lon="2.59808">
        <ele>602.49</ele>
        <time>2016-03-11T14:11:33Z</time>
      </trkpt>
      <trkpt lat="44.55684" lon="2.59805">
        <ele>598.13</ele>
        <time>2016-03-11T14:11:48Z</time>
      </trkpt>
      <trkpt lat="44.55703" lon="2.59806">
        <ele>601.78</ele>
        <time>2016-03-11T14:12:03Z</time>
      </trkpt>
      <trkpt lat="44.55722" lon="2.59805">
        <ele>601.1</ele>
        <time>2016-03-11T14:12:18Z</time>
      </trkpt>
      <trkpt lat="44.5574" lon="2.59803">
        <ele>606.53</ele>
        <time>2016-03-11T14:12:35Z</time>
      </trkpt>
      <trkpt lat="44.55759" lon="2.59803">
        <ele>611.52</ele>
        <time>2016-03-11T14:12:50Z</time>
      </trkpt>
      <trkpt lat="44.55776" lon="2.59796">
        <ele>611.63</ele>
        <time>2016-03-11T14:13:11Z</time>
      </trkpt>
      <trkpt lat="44.55794" lon="2.59792">
        <ele>614.8</ele>
        <time>2016-03-11T14:13:28Z</time>
      </trkpt>
      <trkpt lat="44.55812" lon="2.59788">
        <ele>617.75</ele>
        <time>2016-03-11T14:13:44Z</time>
      </trkpt>
      <trkpt lat="44.5583" lon="2.59781">
        <ele>619.45</ele>
        <time>2016-03-11T14:14:06Z</time>
      </trkpt>
      <trkpt lat="44.55848" lon="2.59777">
        <ele>617.77</ele>
        <time>2016-03-11T14:14:21Z</time>
      </trkpt>
      <trkpt lat="44.55867" lon="2.59776">
        <ele>617.73</ele>
        <time>2016-03-11T14:14:36Z</time>
      </trkpt>
      <trkpt lat="44.55885" lon="2.59775">
        <ele>615.28</ele>
        <time>2016-03-11T14:14:49Z</time>
      </trkpt>
      <trkpt lat="44.55904" lon="2.59775">
        <ele>615.25</ele>
        <time>2016-03-11T14:15:07Z</time>
      </trkpt>
      <trkpt lat="44.55922" lon="2.59777">
        <ele>615.59</ele>
        <time>2016-03-11T14:15:40Z</time>
      </trkpt>
      <trkpt lat="44.55955" lon="2.59797">
        <ele>621.31</ele>
        <time>2016-03-11T14:16:14Z</time>
      </trkpt>
      <trkpt lat="44.55973" lon="2.59805">
        <ele>625.53</ele>
        <time>2016-03-11T14:16:24Z</time>
      </trkpt>
      <trkpt lat="44.55991" lon="2.59815">
        <ele>624.3</ele>
        <time>2016-03-11T14:16:39Z</time>
      </trkpt>
      <trkpt lat="44.56007" lon="2.59828">
        <ele>623.98</ele>
        <time>2016-03-11T14:16:58Z</time>
      </trkpt>
      <trkpt lat="44.56023" lon="2.59839">
        <ele>628.25</ele>
        <time>2016-03-11T14:17:12Z</time>
      </trkpt>
      <trkpt lat="44.56042" lon="2.59841">
        <ele>624.3</ele>
        <time>2016-03-11T14:17:40Z</time>
      </trkpt>
      <trkpt lat="44.56061" lon="2.59844">
        <ele>622.09</ele>
        <time>2016-03-11T14:17:53Z</time>
      </trkpt>
      <trkpt lat="44.5608" lon="2.59844">
        <ele>626.1</ele>
        <time>2016-03-11T14:18:06Z</time>
      </trkpt>
      <trkpt lat="44.56097" lon="2.5985">
        <ele>628.94</ele>
        <time>2016-03-11T14:18:25Z</time>
      </trkpt>
      <trkpt lat="44.56118" lon="2.59861">
        <ele>629.89</ele>
        <time>2016-03-11T14:18:39Z</time>
      </trkpt>
      <trkpt lat="44.56134" lon="2.59873">
        <ele>632.32</ele>
        <time>2016-03-11T14:18:53Z</time>
      </trkpt>
      <trkpt lat="44.56151" lon="2.59885">
        <ele>629.92</ele>
        <time>2016-03-11T14:19:09Z</time>
      </trkpt>
      <trkpt lat="44.56164" lon="2.59904">
        <ele>628.36</ele>
        <time>2016-03-11T14:19:21Z</time>
      </trkpt>
      <trkpt lat="44.56178" lon="2.5992">
        <ele>627.29</ele>
        <time>2016-03-11T14:19:32Z</time>
      </trkpt>
      <trkpt lat="44.56191" lon="2.59937">
        <ele>626.16</ele>
        <time>2016-03-11T14:19:51Z</time>
      </trkpt>
      <trkpt lat="44.56209" lon="2.5994">
        <ele>631.72</ele>
        <time>2016-03-11T14:20:07Z</time>
      </trkpt>
      <trkpt lat="44.56228" lon="2.59939">
        <ele>630.13</ele>
        <time>2016-03-11T14:20:19Z</time>
      </trkpt>
      <trkpt lat="44.56246" lon="2.59939">
        <ele>634.72</ele>
        <time>2016-03-11T14:20:35Z</time>
      </trkpt>
      <trkpt lat="44.56296" lon="2.59909">
        <ele>624.07</ele>
        <time>2016-03-11T14:21:15Z</time>
      </trkpt>
      <trkpt lat="44.56314" lon="2.59898">
        <ele>628.17</ele>
        <time>2016-03-11T14:21:24Z</time>
      </trkpt>
      <trkpt lat="44.56328" lon="2.59881">
        <ele>630.51</ele>
        <time>2016-03-11T14:21:44Z</time>
      </trkpt>
      <trkpt lat="44.56346" lon="2.59865">
        <ele>622.76</ele>
        <time>2016-03-11T14:21:57Z</time>
      </trkpt>
      <trkpt lat="44.56358" lon="2.59845">
        <ele>617.59</ele>
        <time>2016-03-11T14:22:11Z</time>
      </trkpt>
      <trkpt lat="44.5634" lon="2.59837">
        <ele>603.71</ele>
        <time>2016-03-11T14:23:36Z</time>
      </trkpt>
      <trkpt lat="44.56324" lon="2.59848">
        <ele>601.13</ele>
        <time>2016-03-11T14:23:53Z</time>
      </trkpt>
      <trkpt lat="44.56305" lon="2.59847">
        <ele>601.51</ele>
        <time>2016-03-11T14:24:07Z</time>
      </trkpt>
      <trkpt lat="44.56291" lon="2.59862">
        <ele>599.36</ele>
        <time>2016-03-11T14:24:25Z</time>
      </trkpt>
      <trkpt lat="44.56269" lon="2.5985">
        <ele>600.25</ele>
        <time>2016-03-11T14:25:33Z</time>
      </trkpt>
      <trkpt lat="44.56251" lon="2.59844">
        <ele>604.58</ele>
        <time>2016-03-11T14:25:42Z</time>
      </trkpt>
      <trkpt lat="44.56236" lon="2.59863">
        <ele>601.06</ele>
        <time>2016-03-11T14:26:11Z</time>
      </trkpt>
      <trkpt lat="44.5622" lon="2.59846">
        <ele>598.21</ele>
        <time>2016-03-11T14:26:53Z</time>
      </trkpt>
      <trkpt lat="44.56208" lon="2.59827">
        <ele>597.86</ele>
        <time>2016-03-11T14:27:06Z</time>
      </trkpt>
      <trkpt lat="44.56204" lon="2.59802">
        <ele>588.71</ele>
        <time>2016-03-11T14:27:25Z</time>
      </trkpt>
      <trkpt lat="44.56193" lon="2.59774">
        <ele>587.81</ele>
        <time>2016-03-11T14:27:46Z</time>
      </trkpt>
      <trkpt lat="44.56189" lon="2.59747">
        <ele>586.27</ele>
        <time>2016-03-11T14:27:56Z</time>
      </trkpt>
      <trkpt lat="44.56175" lon="2.59731">
        <ele>590.37</ele>
        <time>2016-03-11T14:28:10Z</time>
      </trkpt>
      <trkpt lat="44.56165" lon="2.59708">
        <ele>591.07</ele>
        <time>2016-03-11T14:28:47Z</time>
      </trkpt>
      <trkpt lat="44.56149" lon="2.59692">
        <ele>591.25</ele>
        <time>2016-03-11T14:28:56Z</time>
      </trkpt>
      <trkpt lat="44.56135" lon="2.59669">
        <ele>584.67</ele>
        <time>2016-03-11T14:29:05Z</time>
      </trkpt>
      <trkpt lat="44.56137" lon="2.59641">
        <ele>582.47</ele>
        <time>2016-03-11T14:29:23Z</time>
      </trkpt>
      <trkpt lat="44.56125" lon="2.59618">
        <ele>584.38</ele>
        <time>2016-03-11T14:29:45Z</time>
      </trkpt>
      <trkpt lat="44.56117" lon="2.59595">
        <ele>591.63</ele>
        <time>2016-03-11T14:30:07Z</time>
      </trkpt>
      <trkpt lat="44.56121" lon="2.59569">
        <ele>594.54</ele>
        <time>2016-03-11T14:30:23Z</time>
      </trkpt>
      <trkpt lat="44.56107" lon="2.59552">
        <ele>595.46</ele>
        <time>2016-03-11T14:30:31Z</time>
      </trkpt>
      <trkpt lat="44.56092" lon="2.59531">
        <ele>596.08</ele>
        <time>2016-03-11T14:30:49Z</time>
      </trkpt>
      <trkpt lat="44.56077" lon="2.59515">
        <ele>594.59</ele>
        <time>2016-03-11T14:31:12Z</time>
      </trkpt>
      <trkpt lat="44.56095" lon="2.59507">
        <ele>590.32</ele>
        <time>2016-03-11T14:31:17Z</time>
      </trkpt>
      <trkpt lat="44.56096" lon="2.59481">
        <ele>586.69</ele>
        <time>2016-03-11T14:31:28Z</time>
      </trkpt>
      <trkpt lat="44.56088" lon="2.59457">
        <ele>584.64</ele>
        <time>2016-03-11T14:31:58Z</time>
      </trkpt>
      <trkpt lat="44.56074" lon="2.59441">
        <ele>588.55</ele>
        <time>2016-03-11T14:32:04Z</time>
      </trkpt>
      <trkpt lat="44.56074" lon="2.59415">
        <ele>585.1</ele>
        <time>2016-03-11T14:32:17Z</time>
      </trkpt>
      <trkpt lat="44.56055" lon="2.5941">
        <ele>596.62</ele>
        <time>2016-03-11T14:32:34Z</time>
      </trkpt>
      <trkpt lat="44.56038" lon="2.59385">
        <ele>599.84</ele>
        <time>2016-03-11T14:32:46Z</time>
      </trkpt>
      <trkpt lat="44.56024" lon="2.5937">
        <ele>595.26</ele>
        <time>2016-03-11T14:32:55Z</time>
      </trkpt>
      <trkpt lat="44.56007" lon="2.59357">
        <ele>596.32</ele>
        <time>2016-03-11T14:33:07Z</time>
      </trkpt>
      <trkpt lat="44.55989" lon="2.59343">
        <ele>587.04</ele>
        <time>2016-03-11T14:33:24Z</time>
      </trkpt>
      <trkpt lat="44.55971" lon="2.59337">
        <ele>592.85</ele>
        <time>2016-03-11T14:33:34Z</time>
      </trkpt>
      <trkpt lat="44.55956" lon="2.59321">
        <ele>588.86</ele>
        <time>2016-03-11T14:33:44Z</time>
      </trkpt>
      <trkpt lat="44.55957" lon="2.59294">
        <ele>589.4</ele>
        <time>2016-03-11T14:34:03Z</time>
      </trkpt>
      <trkpt lat="44.55967" lon="2.59271">
        <ele>587.89</ele>
        <time>2016-03-11T14:34:20Z</time>
      </trkpt>
      <trkpt lat="44.55963" lon="2.59245">
        <ele>577.58</ele>
        <time>2016-03-11T14:34:28Z</time>
      </trkpt>
      <trkpt lat="44.55952" lon="2.59223">
        <ele>566.62</ele>
        <time>2016-03-11T14:34:51Z</time>
      </trkpt>
      <trkpt lat="44.55942" lon="2.592">
        <ele>569.48</ele>
        <time>2016-03-11T14:35:04Z</time>
      </trkpt>
      <trkpt lat="44.55925" lon="2.59187">
        <ele>572.24</ele>
        <time>2016-03-11T14:35:15Z</time>
      </trkpt>
      <trkpt lat="44.55909" lon="2.59172">
        <ele>579.99</ele>
        <time>2016-03-11T14:35:28Z</time>
      </trkpt>
      <trkpt lat="44.55899" lon="2.59149">
        <ele>580.87</ele>
        <time>2016-03-11T14:35:41Z</time>
      </trkpt>
      <trkpt lat="44.55893" lon="2.59121">
        <ele>580.11</ele>
        <time>2016-03-11T14:36:51Z</time>
      </trkpt>
      <trkpt lat="44.55884" lon="2.59096">
        <ele>582.04</ele>
        <time>2016-03-11T14:36:55Z</time>
      </trkpt>
      <trkpt lat="44.55867" lon="2.59084">
        <ele>587.25</ele>
        <time>2016-03-11T14:37:05Z</time>
      </trkpt>
      <trkpt lat="44.55851" lon="2.59063">
        <ele>577.4</ele>
        <time>2016-03-11T14:37:31Z</time>
      </trkpt>
      <trkpt lat="44.55833" lon="2.59054">
        <ele>572.74</ele>
        <time>2016-03-11T14:37:53Z</time>
      </trkpt>
      <trkpt lat="44.55815" lon="2.59059">
        <ele>580.38</ele>
        <time>2016-03-11T14:38:19Z</time>
      </trkpt>
      <trkpt lat="44.55795" lon="2.59059">
        <ele>583.41</ele>
        <time>2016-03-11T14:39:02Z</time>
      </trkpt>
      <trkpt lat="44.55776" lon="2.59056">
        <ele>584.92</ele>
        <time>2016-03-11T14:39:09Z</time>
      </trkpt>
      <trkpt lat="44.5576" lon="2.59042">
        <ele>579.14</ele>
        <time>2016-03-11T14:39:42Z</time>
      </trkpt>
      <trkpt lat="44.55745" lon="2.59029">
        <ele>576.98</ele>
        <time>2016-03-11T14:41:00Z</time>
      </trkpt>
      <trkpt lat="44.55759" lon="2.59004">
        <ele>567.71</ele>
        <time>2016-03-11T14:41:42Z</time>
      </trkpt>
      <trkpt lat="44.5577" lon="2.58984">
        <ele>573.62</ele>
        <time>2016-03-11T14:41:55Z</time>
      </trkpt>
      <trkpt lat="44.55784" lon="2.58966">
        <ele>574.29</ele>
        <time>2016-03-11T14:42:10Z</time>
      </trkpt>
      <trkpt lat="44.55794" lon="2.58943">
        <ele>576.28</ele>
        <time>2016-03-11T14:42:21Z</time>
      </trkpt>
      <trkpt lat="44.55804" lon="2.5892">
        <ele>580.54</ele>
        <time>2016-03-11T14:42:37Z</time>
      </trkpt>
      <trkpt lat="44.55814" lon="2.58899">
        <ele>581.93</ele>
        <time>2016-03-11T14:42:53Z</time>
      </trkpt>
      <trkpt lat="44.55829" lon="2.58884">
        <ele>585.33</ele>
        <time>2016-03-11T14:43:07Z</time>
      </trkpt>
      <trkpt lat="44.55842" lon="2.58865">
        <ele>587.8</ele>
        <time>2016-03-11T14:43:21Z</time>
      </trkpt>
      <trkpt lat="44.55856" lon="2.58848">
        <ele>587.24</ele>
        <time>2016-03-11T14:43:37Z</time>
      </trkpt>
      <trkpt lat="44.55863" lon="2.58824">
        <ele>586.68</ele>
        <time>2016-03-11T14:43:52Z</time>
      </trkpt>
      <trkpt lat="44.55872" lon="2.58802">
        <ele>586.81</ele>
        <time>2016-03-11T14:44:12Z</time>
      </trkpt>
      <trkpt lat="44.55885" lon="2.58783">
        <ele>591.43</ele>
        <time>2016-03-11T14:44:26Z</time>
      </trkpt>
      <trkpt lat="44.55901" lon="2.58767">
        <ele>590.2</ele>
        <time>2016-03-11T14:44:47Z</time>
      </trkpt>
      <trkpt lat="44.55914" lon="2.58749">
        <ele>594.66</ele>
        <time>2016-03-11T14:45:02Z</time>
      </trkpt>
      <trkpt lat="44.55931" lon="2.58737">
        <ele>594.1</ele>
        <time>2016-03-11T14:45:17Z</time>
      </trkpt>
      <trkpt lat="44.55946" lon="2.58722">
        <ele>597.45</ele>
        <time>2016-03-11T14:45:32Z</time>
      </trkpt>
      <trkpt lat="44.55958" lon="2.58703">
        <ele>599.75</ele>
        <time>2016-03-11T14:45:47Z</time>
      </trkpt>
      <trkpt lat="44.55975" lon="2.58692">
        <ele>602.61</ele>
        <time>2016-03-11T14:46:00Z</time>
      </trkpt>
      <trkpt lat="44.56021" lon="2.58654">
        <ele>607.87</ele>
        <time>2016-03-11T14:46:42Z</time>
      </trkpt>
      <trkpt lat="44.56039" lon="2.58656">
        <ele>597.87</ele>
        <time>2016-03-11T14:47:02Z</time>
      </trkpt>
      <trkpt lat="44.56057" lon="2.58653">
        <ele>598.03</ele>
        <time>2016-03-11T14:47:29Z</time>
      </trkpt>
      <trkpt lat="44.56052" lon="2.58626">
        <ele>598.84</ele>
        <time>2016-03-11T14:47:43Z</time>
      </trkpt>
      <trkpt lat="44.56072" lon="2.58618">
        <ele>594.72</ele>
        <time>2016-03-11T14:48:45Z</time>
      </trkpt>
      <trkpt lat="44.56081" lon="2.58596">
        <ele>604.54</ele>
        <time>2016-03-11T14:49:01Z</time>
      </trkpt>
      <trkpt lat="44.56098" lon="2.58586">
        <ele>601.6</ele>
        <time>2016-03-11T14:49:06Z</time>
      </trkpt>
      <trkpt lat="44.56119" lon="2.58593">
        <ele>601.46</ele>
        <time>2016-03-11T14:49:22Z</time>
      </trkpt>
      <trkpt lat="44.56139" lon="2.58588">
        <ele>604.62</ele>
        <time>2016-03-11T14:49:38Z</time>
      </trkpt>
      <trkpt lat="44.56127" lon="2.58566">
        <ele>612.68</ele>
        <time>2016-03-11T14:50:43Z</time>
      </trkpt>
      <trkpt lat="44.56108" lon="2.58572">
        <ele>627.44</ele>
        <time>2016-03-11T14:52:16Z</time>
      </trkpt>
      <trkpt lat="44.56089" lon="2.5857">
        <ele>623.78</ele>
        <time>2016-03-11T14:52:25Z</time>
      </trkpt>
      <trkpt lat="44.56069" lon="2.58568">
        <ele>628.44</ele>
        <time>2016-03-11T14:53:02Z</time>
      </trkpt>
      <trkpt lat="44.56052" lon="2.58578">
        <ele>620.3</ele>
        <time>2016-03-11T14:53:33Z</time>
      </trkpt>
      <trkpt lat="44.56033" lon="2.58578">
        <ele>620.55</ele>
        <time>2016-03-11T14:56:01Z</time>
      </trkpt>
      <trkpt lat="44.56013" lon="2.58568">
        <ele>624.36</ele>
        <time>2016-03-11T14:56:45Z</time>
      </trkpt>
      <trkpt lat="44.56001" lon="2.58548">
        <ele>615.74</ele>
        <time>2016-03-11T14:57:08Z</time>
      </trkpt>
      <trkpt lat="44.55982" lon="2.58541">
        <ele>615.05</ele>
        <time>2016-03-11T14:57:28Z</time>
      </trkpt>
      <trkpt lat="44.55964" lon="2.5854">
        <ele>605.59</ele>
        <time>2016-03-11T14:58:07Z</time>
      </trkpt>
      <trkpt lat="44.55944" lon="2.58544">
        <ele>602.07</ele>
        <time>2016-03-11T14:58:27Z</time>
      </trkpt>
      <trkpt lat="44.55927" lon="2.58538">
        <ele>615.63</ele>
        <time>2016-03-11T14:58:54Z</time>
      </trkpt>
      <trkpt lat="44.55908" lon="2.58547">
        <ele>615.73</ele>
        <time>2016-03-11T14:59:09Z</time>
      </trkpt>
      <trkpt lat="44.5589" lon="2.58547">
        <ele>614.53</ele>
        <time>2016-03-11T14:59:28Z</time>
      </trkpt>
      <trkpt lat="44.55874" lon="2.58558">
        <ele>618.35</ele>
        <time>2016-03-11T15:00:20Z</time>
      </trkpt>
      <trkpt lat="44.55856" lon="2.58565">
        <ele>615.32</ele>
        <time>2016-03-11T15:00:37Z</time>
      </trkpt>
      <trkpt lat="44.5584" lon="2.58554">
        <ele>611.16</ele>
        <time>2016-03-11T15:00:51Z</time>
      </trkpt>
      <trkpt lat="44.55858" lon="2.5851">
        <ele>613.27</ele>
        <time>2016-03-11T15:01:42Z</time>
      </trkpt>
      <trkpt lat="44.55876" lon="2.58511">
        <ele>613.72</ele>
        <time>2016-03-11T15:01:59Z</time>
      </trkpt>
      <trkpt lat="44.55892" lon="2.58494">
        <ele>608.93</ele>
        <time>2016-03-11T15:02:09Z</time>
      </trkpt>
      <trkpt lat="44.55908" lon="2.5848">
        <ele>617.82</ele>
        <time>2016-03-11T15:02:24Z</time>
      </trkpt>
      <trkpt lat="44.55925" lon="2.5847">
        <ele>612.43</ele>
        <time>2016-03-11T15:02:43Z</time>
      </trkpt>
      <trkpt lat="44.55942" lon="2.58458">
        <ele>607.68</ele>
        <time>2016-03-11T15:02:56Z</time>
      </trkpt>
      <trkpt lat="44.55958" lon="2.58444">
        <ele>606.18</ele>
        <time>2016-03-11T15:03:08Z</time>
      </trkpt>
      <trkpt lat="44.55972" lon="2.58426">
        <ele>608.6</ele>
        <time>2016-03-11T15:03:23Z</time>
      </trkpt>
      <trkpt lat="44.55989" lon="2.58408">
        <ele>613.86</ele>
        <time>2016-03-11T15:04:10Z</time>
      </trkpt>
      <trkpt lat="44.56004" lon="2.58392">
        <ele>611.08</ele>
        <time>2016-03-11T15:04:24Z</time>
      </trkpt>
      <trkpt lat="44.56021" lon="2.58377">
        <ele>612.26</ele>
        <time>2016-03-11T15:04:41Z</time>
      </trkpt>
      <trkpt lat="44.56037" lon="2.58363">
        <ele>610.64</ele>
        <time>2016-03-11T15:04:58Z</time>
      </trkpt>
      <trkpt lat="44.56053" lon="2.58349">
        <ele>612.87</ele>
        <time>2016-03-11T15:05:18Z</time>
      </trkpt>
      <trkpt lat="44.56072" lon="2.58348">
        <ele>618.66</ele>
        <time>2016-03-11T15:05:36Z</time>
      </trkpt>
      <trkpt lat="44.56086" lon="2.58332">
        <ele>611.19</ele>
        <time>2016-03-11T15:05:50Z</time>
      </trkpt>
      <trkpt lat="44.56104" lon="2.58323">
        <ele>617.94</ele>
        <time>2016-03-11T15:06:04Z</time>
      </trkpt>
      <trkpt lat="44.56138" lon="2.58304">
        <ele>616.26</ele>
        <time>2016-03-11T15:06:39Z</time>
      </trkpt>
      <trkpt lat="44.56156" lon="2.583">
        <ele>621.35</ele>
        <time>2016-03-11T15:06:53Z</time>
      </trkpt>
      <trkpt lat="44.56173" lon="2.58291">
        <ele>624.41</ele>
        <time>2016-03-11T15:07:11Z</time>
      </trkpt>
      <trkpt lat="44.56185" lon="2.58273">
        <ele>626.64</ele>
        <time>2016-03-11T15:07:25Z</time>
      </trkpt>
      <trkpt lat="44.56201" lon="2.58256">
        <ele>627.44</ele>
        <time>2016-03-11T15:07:42Z</time>
      </trkpt>
      <trkpt lat="44.56213" lon="2.58235">
        <ele>625.4</ele>
        <time>2016-03-11T15:07:59Z</time>
      </trkpt>
      <trkpt lat="44.56226" lon="2.58216">
        <ele>623.57</ele>
        <time>2016-03-11T15:08:13Z</time>
      </trkpt>
      <trkpt lat="44.56235" lon="2.58192">
        <ele>627.85</ele>
        <time>2016-03-11T15:08:26Z</time>
      </trkpt>
      <trkpt lat="44.56243" lon="2.5817">
        <ele>629.94</ele>
        <time>2016-03-11T15:08:42Z</time>
      </trkpt>
      <trkpt lat="44.56239" lon="2.58144">
        <ele>627.65</ele>
        <time>2016-03-11T15:09:04Z</time>
      </trkpt>
      <trkpt lat="44.56228" lon="2.58123">
        <ele>626.2</ele>
        <time>2016-03-11T15:09:17Z</time>
      </trkpt>
      <trkpt lat="44.56214" lon="2.58104">
        <ele>624.06</ele>
        <time>2016-03-11T15:09:30Z</time>
      </trkpt>
      <trkpt lat="44.56202" lon="2.58083">
        <ele>623.6</ele>
        <time>2016-03-11T15:09:42Z</time>
      </trkpt>
      <trkpt lat="44.56189" lon="2.58064">
        <ele>623.3</ele>
        <time>2016-03-11T15:09:57Z</time>
      </trkpt>
      <trkpt lat="44.56177" lon="2.58043">
        <ele>623.41</ele>
        <time>2016-03-11T15:10:14Z</time>
      </trkpt>
      <trkpt lat="44.56165" lon="2.58021">
        <ele>624.95</ele>
        <time>2016-03-11T15:10:35Z</time>
      </trkpt>
      <trkpt lat="44.56153" lon="2.58003">
        <ele>620.16</ele>
        <time>2016-03-11T15:10:46Z</time>
      </trkpt>
      <trkpt lat="44.5614" lon="2.57984">
        <ele>622.47</ele>
        <time>2016-03-11T15:11:01Z</time>
      </trkpt>
      <trkpt lat="44.56102" lon="2.57936">
        <ele>623.96</ele>
        <time>2016-03-11T15:11:43Z</time>
      </trkpt>
      <trkpt lat="44.56093" lon="2.57912">
        <ele>619.63</ele>
        <time>2016-03-11T15:11:55Z</time>
      </trkpt>
      <trkpt lat="44.56086" lon="2.57888">
        <ele>622.57</ele>
        <time>2016-03-11T15:12:15Z</time>
      </trkpt>
      <trkpt lat="44.56068" lon="2.57887">
        <ele>621.67</ele>
        <time>2016-03-11T15:12:41Z</time>
      </trkpt>
      <trkpt lat="44.5605" lon="2.57894">
        <ele>624.08</ele>
        <time>2016-03-11T15:12:58Z</time>
      </trkpt>
      <trkpt lat="44.56031" lon="2.57898">
        <ele>620.07</ele>
        <time>2016-03-11T15:13:09Z</time>
      </trkpt>
      <trkpt lat="44.56012" lon="2.57905">
        <ele>617.05</ele>
        <time>2016-03-11T15:13:24Z</time>
      </trkpt>
      <trkpt lat="44.55994" lon="2.57908">
        <ele>616.58</ele>
        <time>2016-03-11T15:13:39Z</time>
      </trkpt>
      <trkpt lat="44.55975" lon="2.57914">
        <ele>614.61</ele>
        <time>2016-03-11T15:13:54Z</time>
      </trkpt>
      <trkpt lat="44.55957" lon="2.57917">
        <ele>617.42</ele>
        <time>2016-03-11T15:14:06Z</time>
      </trkpt>
      <trkpt lat="44.55939" lon="2.57927">
        <ele>612.81</ele>
        <time>2016-03-11T15:14:18Z</time>
      </trkpt>
      <trkpt lat="44.55922" lon="2.57936">
        <ele>618.61</ele>
        <time>2016-03-11T15:14:35Z</time>
      </trkpt>
      <trkpt lat="44.55904" lon="2.57943">
        <ele>616.25</ele>
        <time>2016-03-11T15:14:49Z</time>
      </trkpt>
      <trkpt lat="44.55885" lon="2.57947">
        <ele>615.97</ele>
        <time>2016-03-11T15:15:56Z</time>
      </trkpt>
      <trkpt lat="44.55866" lon="2.57951">
        <ele>611.9</ele>
        <time>2016-03-11T15:16:11Z</time>
      </trkpt>
      <trkpt lat="44.55828" lon="2.57957">
        <ele>614.57</ele>
        <time>2016-03-11T15:16:44Z</time>
      </trkpt>
      <trkpt lat="44.5581" lon="2.57952">
        <ele>620.87</ele>
        <time>2016-03-11T15:16:56Z</time>
      </trkpt>
      <trkpt lat="44.55792" lon="2.57939">
        <ele>615.13</ele>
        <time>2016-03-11T15:17:12Z</time>
      </trkpt>
      <trkpt lat="44.55775" lon="2.57929">
        <ele>618.51</ele>
        <time>2016-03-11T15:17:25Z</time>
      </trkpt>
      <trkpt lat="44.55758" lon="2.57917">
        <ele>617.51</ele>
        <time>2016-03-11T15:17:39Z</time>
      </trkpt>
      <trkpt lat="44.55743" lon="2.57902">
        <ele>621.11</ele>
        <time>2016-03-11T15:17:54Z</time>
      </trkpt>
      <trkpt lat="44.55726" lon="2.57888">
        <ele>619.96</ele>
        <time>2016-03-11T15:18:07Z</time>
      </trkpt>
      <trkpt lat="44.55709" lon="2.57874">
        <ele>619.12</ele>
        <time>2016-03-11T15:18:21Z</time>
      </trkpt>
      <trkpt lat="44.55695" lon="2.57855">
        <ele>617.49</ele>
        <time>2016-03-11T15:18:35Z</time>
      </trkpt>
      <trkpt lat="44.55681" lon="2.57836">
        <ele>615.39</ele>
        <time>2016-03-11T15:18:51Z</time>
      </trkpt>
      <trkpt lat="44.55664" lon="2.57825">
        <ele>617.79</ele>
        <time>2016-03-11T15:19:04Z</time>
      </trkpt>
      <trkpt lat="44.55645" lon="2.57821">
        <ele>620.94</ele>
        <time>2016-03-11T15:19:16Z</time>
      </trkpt>
      <trkpt lat="44.55626" lon="2.57825">
        <ele>610.11</ele>
        <time>2016-03-11T15:19:30Z</time>
      </trkpt>
      <trkpt lat="44.55609" lon="2.57834">
        <ele>613.44</ele>
        <time>2016-03-11T15:19:43Z</time>
      </trkpt>
      <trkpt lat="44.5559" lon="2.57839">
        <ele>621.71</ele>
        <time>2016-03-11T15:20:03Z</time>
      </trkpt>
      <trkpt lat="44.55572" lon="2.57848">
        <ele>620.37</ele>
        <time>2016-03-11T15:20:17Z</time>
      </trkpt>
      <trkpt lat="44.55556" lon="2.57862">
        <ele>619.14</ele>
        <time>2016-03-11T15:20:30Z</time>
      </trkpt>
      <trkpt lat="44.55539" lon="2.57853">
        <ele>627.5</ele>
        <time>2016-03-11T15:20:44Z</time>
      </trkpt>
      <trkpt lat="44.55521" lon="2.57861">
        <ele>622.68</ele>
        <time>2016-03-11T15:20:57Z</time>
      </trkpt>
      <trkpt lat="44.55451" lon="2.57861">
        <ele>617.65</ele>
        <time>2016-03-11T15:21:44Z</time>
      </trkpt>
      <trkpt lat="44.55433" lon="2.57853">
        <ele>612.68</ele>
        <time>2016-03-11T15:21:53Z</time>
      </trkpt>
      <trkpt lat="44.55413" lon="2.57854">
        <ele>613.83</ele>
        <time>2016-03-11T15:22:13Z</time>
      </trkpt>
      <trkpt lat="44.55395" lon="2.57853">
        <ele>611.57</ele>
        <time>2016-03-11T15:22:29Z</time>
      </trkpt>
      <trkpt lat="44.55376" lon="2.57853">
        <ele>610.14</ele>
        <time>2016-03-11T15:22:44Z</time>
      </trkpt>
      <trkpt lat="44.55357" lon="2.5785">
        <ele>610.67</ele>
        <time>2016-03-11T15:22:55Z</time>
      </trkpt>
      <trkpt lat="44.55339" lon="2.57849">
        <ele>607.68</ele>
        <time>2016-03-11T15:23:06Z</time>
      </trkpt>
      <trkpt lat="44.5532" lon="2.57848">
        <ele>607.94</ele>
        <time>2016-03-11T15:23:24Z</time>
      </trkpt>
      <trkpt lat="44.55301" lon="2.57843">
        <ele>610.7</ele>
        <time>2016-03-11T15:23:37Z</time>
      </trkpt>
      <trkpt lat="44.55283" lon="2.57839">
        <ele>621.04</ele>
        <time>2016-03-11T15:23:53Z</time>
      </trkpt>
      <trkpt lat="44.55267" lon="2.57825">
        <ele>630.49</ele>
        <time>2016-03-11T15:24:09Z</time>
      </trkpt>
      <trkpt lat="44.55252" lon="2.57839">
        <ele>626.81</ele>
        <time>2016-03-11T15:24:19Z</time>
      </trkpt>
      <trkpt lat="44.55233" lon="2.5784">
        <ele>625.66</ele>
        <time>2016-03-11T15:24:34Z</time>
      </trkpt>
      <trkpt lat="44.55214" lon="2.57842">
        <ele>624.95</ele>
        <time>2016-03-11T15:24:47Z</time>
      </trkpt>
      <trkpt lat="44.55197" lon="2.57832">
        <ele>635.94</ele>
        <time>2016-03-11T15:25:06Z</time>
      </trkpt>
      <trkpt lat="44.55178" lon="2.57835">
        <ele>633.8</ele>
        <time>2016-03-11T15:25:18Z</time>
      </trkpt>
      <trkpt lat="44.55163" lon="2.57855">
        <ele>625.44</ele>
        <time>2016-03-11T15:25:26Z</time>
      </trkpt>
      <trkpt lat="44.55146" lon="2.57866">
        <ele>626.73</ele>
        <time>2016-03-11T15:25:41Z</time>
      </trkpt>
      <trkpt lat="44.55129" lon="2.5788">
        <ele>633.02</ele>
        <time>2016-03-11T15:26:01Z</time>
      </trkpt>
      <trkpt lat="44.55108" lon="2.57912">
        <ele>635.32</ele>
        <time>2016-03-11T15:26:44Z</time>
      </trkpt>
      <trkpt lat="44.55078" lon="2.57927">
        <ele>636.48</ele>
        <time>2016-03-11T15:26:47Z</time>
      </trkpt>
      <trkpt lat="44.55061" lon="2.57934">
        <ele>634.8</ele>
        <time>2016-03-11T15:26:54Z</time>
      </trkpt>
      <trkpt lat="44.55047" lon="2.57952">
        <ele>626.4</ele>
        <time>2016-03-11T15:27:11Z</time>
      </trkpt>
      <trkpt lat="44.5503" lon="2.57961">
        <ele>618.22</ele>
        <time>2016-03-11T15:27:22Z</time>
      </trkpt>
      <trkpt lat="44.55012" lon="2.57967">
        <ele>620.65</ele>
        <time>2016-03-11T15:27:48Z</time>
      </trkpt>
      <trkpt lat="44.54994" lon="2.57982">
        <ele>618.17</ele>
        <time>2016-03-11T15:28:04Z</time>
      </trkpt>
      <trkpt lat="44.54977" lon="2.57989">
        <ele>616.71</ele>
        <time>2016-03-11T15:28:22Z</time>
      </trkpt>
      <trkpt lat="44.54958" lon="2.57994">
        <ele>616.73</ele>
        <time>2016-03-11T15:28:41Z</time>
      </trkpt>
      <trkpt lat="44.5494" lon="2.57998">
        <ele>605.97</ele>
        <time>2016-03-11T15:28:52Z</time>
      </trkpt>
      <trkpt lat="44.54923" lon="2.57986">
        <ele>601.89</ele>
        <time>2016-03-11T15:29:06Z</time>
      </trkpt>
      <trkpt lat="44.54917" lon="2.57962">
        <ele>603.26</ele>
        <time>2016-03-11T15:29:25Z</time>
      </trkpt>
      <trkpt lat="44.54907" lon="2.57938">
        <ele>604.55</ele>
        <time>2016-03-11T15:29:41Z</time>
      </trkpt>
      <trkpt lat="44.54908" lon="2.57913">
        <ele>611.1</ele>
        <time>2016-03-11T15:29:56Z</time>
      </trkpt>
      <trkpt lat="44.54904" lon="2.57886">
        <ele>613.88</ele>
        <time>2016-03-11T15:30:11Z</time>
      </trkpt>
      <trkpt lat="44.54898" lon="2.57862">
        <ele>611.95</ele>
        <time>2016-03-11T15:30:26Z</time>
      </trkpt>
      <trkpt lat="44.54894" lon="2.57837">
        <ele>613.9</ele>
        <time>2016-03-11T15:30:41Z</time>
      </trkpt>
      <trkpt lat="44.54896" lon="2.57811">
        <ele>615.13</ele>
        <time>2016-03-11T15:30:55Z</time>
      </trkpt>
      <trkpt lat="44.54889" lon="2.57787">
        <ele>608.29</ele>
        <time>2016-03-11T15:31:12Z</time>
      </trkpt>
      <trkpt lat="44.54867" lon="2.57742">
        <ele>590.49</ele>
        <time>2016-03-11T15:31:43Z</time>
      </trkpt>
      <trkpt lat="44.54855" lon="2.57722">
        <ele>593.78</ele>
        <time>2016-03-11T15:31:54Z</time>
      </trkpt>
      <trkpt lat="44.54843" lon="2.57702">
        <ele>597.17</ele>
        <time>2016-03-11T15:32:09Z</time>
      </trkpt>
      <trkpt lat="44.54828" lon="2.57687">
        <ele>599.54</ele>
        <time>2016-03-11T15:32:29Z</time>
      </trkpt>
      <trkpt lat="44.54845" lon="2.57678">
        <ele>602.14</ele>
        <time>2016-03-11T15:32:38Z</time>
      </trkpt>
      <trkpt lat="44.54826" lon="2.57681">
        <ele>595.94</ele>
        <time>2016-03-11T15:32:48Z</time>
      </trkpt>
      <trkpt lat="44.54821" lon="2.57656">
        <ele>594</ele>
        <time>2016-03-11T15:33:00Z</time>
      </trkpt>
      <trkpt lat="44.54805" lon="2.57641">
        <ele>582.96</ele>
        <time>2016-03-11T15:33:17Z</time>
      </trkpt>
      <trkpt lat="44.54789" lon="2.57628">
        <ele>587.52</ele>
        <time>2016-03-11T15:33:31Z</time>
      </trkpt>
      <trkpt lat="44.54772" lon="2.57621">
        <ele>588.31</ele>
        <time>2016-03-11T15:33:45Z</time>
      </trkpt>
      <trkpt lat="44.54752" lon="2.57617">
        <ele>582.74</ele>
        <time>2016-03-11T15:33:59Z</time>
      </trkpt>
      <trkpt lat="44.54734" lon="2.5762">
        <ele>579.85</ele>
        <time>2016-03-11T15:34:20Z</time>
      </trkpt>
      <trkpt lat="44.54715" lon="2.57614">
        <ele>585.48</ele>
        <time>2016-03-11T15:34:40Z</time>
      </trkpt>
      <trkpt lat="44.54696" lon="2.57613">
        <ele>582.37</ele>
        <time>2016-03-11T15:35:06Z</time>
      </trkpt>
      <trkpt lat="44.54678" lon="2.57609">
        <ele>578.2</ele>
        <time>2016-03-11T15:35:21Z</time>
      </trkpt>
      <trkpt lat="44.54661" lon="2.57603">
        <ele>570.04</ele>
        <time>2016-03-11T15:35:36Z</time>
      </trkpt>
      <trkpt lat="44.54646" lon="2.57589">
        <ele>568.22</ele>
        <time>2016-03-11T15:35:53Z</time>
      </trkpt>
      <trkpt lat="44.54652" lon="2.57563">
        <ele>570.97</ele>
        <time>2016-03-11T15:36:46Z</time>
      </trkpt>
      <trkpt lat="44.54646" lon="2.57538">
        <ele>572.67</ele>
        <time>2016-03-11T15:36:51Z</time>
      </trkpt>
      <trkpt lat="44.54639" lon="2.57511">
        <ele>573.4</ele>
        <time>2016-03-11T15:37:01Z</time>
      </trkpt>
      <trkpt lat="44.54637" lon="2.57484">
        <ele>563.08</ele>
        <time>2016-03-11T15:37:15Z</time>
      </trkpt>
      <trkpt lat="44.54619" lon="2.5748">
        <ele>556.6</ele>
        <time>2016-03-11T15:37:41Z</time>
      </trkpt>
      <trkpt lat="44.54607" lon="2.57458">
        <ele>556.39</ele>
        <time>2016-03-11T15:37:50Z</time>
      </trkpt>
      <trkpt lat="44.54597" lon="2.57435">
        <ele>551.89</ele>
        <time>2016-03-11T15:38:03Z</time>
      </trkpt>
      <trkpt lat="44.54595" lon="2.57409">
        <ele>550.73</ele>
        <time>2016-03-11T15:38:18Z</time>
      </trkpt>
      <trkpt lat="44.54595" lon="2.57382">
        <ele>549.87</ele>
        <time>2016-03-11T15:38:33Z</time>
      </trkpt>
      <trkpt lat="44.54595" lon="2.57357">
        <ele>544.82</ele>
        <time>2016-03-11T15:38:49Z</time>
      </trkpt>
      <trkpt lat="44.54596" lon="2.57329">
        <ele>543.35</ele>
        <time>2016-03-11T15:39:04Z</time>
      </trkpt>
      <trkpt lat="44.54596" lon="2.57302">
        <ele>542.38</ele>
        <time>2016-03-11T15:39:23Z</time>
      </trkpt>
      <trkpt lat="44.54587" lon="2.57279">
        <ele>541.12</ele>
        <time>2016-03-11T15:39:37Z</time>
      </trkpt>
      <trkpt lat="44.5459" lon="2.57252">
        <ele>537.06</ele>
        <time>2016-03-11T15:39:58Z</time>
      </trkpt>
      <trkpt lat="44.54582" lon="2.57228">
        <ele>534.61</ele>
        <time>2016-03-11T15:40:16Z</time>
      </trkpt>
      <trkpt lat="44.5457" lon="2.57249">
        <ele>531.56</ele>
        <time>2016-03-11T15:40:57Z</time>
      </trkpt>
      <trkpt lat="44.54529" lon="2.57226">
        <ele>514.8</ele>
        <time>2016-03-11T15:41:48Z</time>
      </trkpt>
      <trkpt lat="44.54517" lon="2.57204">
        <ele>512.48</ele>
        <time>2016-03-11T15:42:03Z</time>
      </trkpt>
      <trkpt lat="44.54498" lon="2.57209">
        <ele>509.54</ele>
        <time>2016-03-11T15:42:29Z</time>
      </trkpt>
      <trkpt lat="44.5448" lon="2.57221">
        <ele>507.1</ele>
        <time>2016-03-11T15:42:45Z</time>
      </trkpt>
      <trkpt lat="44.54462" lon="2.57232">
        <ele>510.28</ele>
        <time>2016-03-11T15:43:04Z</time>
      </trkpt>
      <trkpt lat="44.54445" lon="2.57223">
        <ele>512.89</ele>
        <time>2016-03-11T15:43:21Z</time>
      </trkpt>
      <trkpt lat="44.54427" lon="2.57214">
        <ele>509.79</ele>
        <time>2016-03-11T15:43:38Z</time>
      </trkpt>
      <trkpt lat="44.54408" lon="2.57215">
        <ele>504.68</ele>
        <time>2016-03-11T15:43:52Z</time>
      </trkpt>
      <trkpt lat="44.54388" lon="2.57216">
        <ele>510.7</ele>
        <time>2016-03-11T15:44:15Z</time>
      </trkpt>
      <trkpt lat="44.5437" lon="2.57212">
        <ele>510.54</ele>
        <time>2016-03-11T15:44:29Z</time>
      </trkpt>
      <trkpt lat="44.54352" lon="2.57211">
        <ele>509.13</ele>
        <time>2016-03-11T15:44:40Z</time>
      </trkpt>
      <trkpt lat="44.54334" lon="2.57215">
        <ele>507.89</ele>
        <time>2016-03-11T15:44:47Z</time>
      </trkpt>
      <trkpt lat="44.54352" lon="2.57212">
        <ele>506.49</ele>
        <time>2016-03-11T15:46:04Z</time>
      </trkpt>
      <trkpt lat="44.54344" lon="2.5717">
        <ele>475.3</ele>
        <time>2016-03-11T15:46:48Z</time>
      </trkpt>
      <trkpt lat="44.54359" lon="2.57155">
        <ele>501.39</ele>
        <time>2016-03-11T15:47:00Z</time>
      </trkpt>
      <trkpt lat="44.54366" lon="2.57131">
        <ele>505.41</ele>
        <time>2016-03-11T15:47:27Z</time>
      </trkpt>
      <trkpt lat="44.5436" lon="2.57106">
        <ele>506.09</ele>
        <time>2016-03-11T15:47:39Z</time>
      </trkpt>
      <trkpt lat="44.5436" lon="2.57079">
        <ele>500.17</ele>
        <time>2016-03-11T15:47:53Z</time>
      </trkpt>
      <trkpt lat="44.54354" lon="2.57055">
        <ele>495.11</ele>
        <time>2016-03-11T15:48:05Z</time>
      </trkpt>
      <trkpt lat="44.54357" lon="2.57029">
        <ele>491.16</ele>
        <time>2016-03-11T15:48:22Z</time>
      </trkpt>
      <trkpt lat="44.54352" lon="2.57005">
        <ele>484.69</ele>
        <time>2016-03-11T15:48:37Z</time>
      </trkpt>
      <trkpt lat="44.54344" lon="2.56982">
        <ele>479.92</ele>
        <time>2016-03-11T15:49:11Z</time>
      </trkpt>
      <trkpt lat="44.54342" lon="2.56957">
        <ele>481.63</ele>
        <time>2016-03-11T15:49:38Z</time>
      </trkpt>
      <trkpt lat="44.54328" lon="2.56941">
        <ele>470.94</ele>
        <time>2016-03-11T15:50:07Z</time>
      </trkpt>
      <trkpt lat="44.54322" lon="2.56917">
        <ele>476.86</ele>
        <time>2016-03-11T15:50:24Z</time>
      </trkpt>
      <trkpt lat="44.54314" lon="2.56894">
        <ele>468.55</ele>
        <time>2016-03-11T15:50:56Z</time>
      </trkpt>
      <trkpt lat="44.54306" lon="2.5687">
        <ele>467.8</ele>
        <time>2016-03-11T15:51:49Z</time>
      </trkpt>
      <trkpt lat="44.54306" lon="2.56845">
        <ele>459.2</ele>
        <time>2016-03-11T15:52:12Z</time>
      </trkpt>
      <trkpt lat="44.543" lon="2.56821">
        <ele>444.68</ele>
        <time>2016-03-11T15:52:59Z</time>
      </trkpt>
      <trkpt lat="44.54288" lon="2.56802">
        <ele>433.85</ele>
        <time>2016-03-11T15:53:13Z</time>
      </trkpt>
      <trkpt lat="44.54279" lon="2.5678">
        <ele>431.87</ele>
        <time>2016-03-11T15:53:36Z</time>
      </trkpt>
      <trkpt lat="44.54263" lon="2.56765">
        <ele>424.97</ele>
        <time>2016-03-11T15:53:58Z</time>
      </trkpt>
      <trkpt lat="44.54254" lon="2.56741">
        <ele>427.38</ele>
        <time>2016-03-11T15:54:30Z</time>
      </trkpt>
      <trkpt lat="44.54244" lon="2.56719">
        <ele>427.07</ele>
        <time>2016-03-11T15:55:29Z</time>
      </trkpt>
      <trkpt lat="44.54242" lon="2.56693">
        <ele>422.58</ele>
        <time>2016-03-11T15:55:39Z</time>
      </trkpt>
      <trkpt lat="44.54231" lon="2.56673">
        <ele>421.4</ele>
        <time>2016-03-11T15:55:53Z</time>
      </trkpt>
      <trkpt lat="44.54214" lon="2.56662">
        <ele>417.31</ele>
        <time>2016-03-11T15:56:53Z</time>
      </trkpt>
      <trkpt lat="44.54194" lon="2.56644">
        <ele>409.43</ele>
        <time>2016-03-11T15:56:58Z</time>
      </trkpt>
      <trkpt lat="44.54178" lon="2.5663">
        <ele>400.3</ele>
        <time>2016-03-11T15:57:11Z</time>
      </trkpt>
      <trkpt lat="44.54161" lon="2.56612">
        <ele>395.93</ele>
        <time>2016-03-11T15:57:37Z</time>
      </trkpt>
      <trkpt lat="44.54149" lon="2.56591">
        <ele>387.79</ele>
        <time>2016-03-11T15:58:19Z</time>
      </trkpt>
      <trkpt lat="44.54129" lon="2.56579">
        <ele>383.58</ele>
        <time>2016-03-11T15:58:57Z</time>
      </trkpt>
      <trkpt lat="44.54111" lon="2.56574">
        <ele>381.08</ele>
        <time>2016-03-11T15:59:12Z</time>
      </trkpt>
      <trkpt lat="44.54095" lon="2.56564">
        <ele>383.17</ele>
        <time>2016-03-11T16:00:11Z</time>
      </trkpt>
      <trkpt lat="44.54072" lon="2.5656">
        <ele>378.98</ele>
        <time>2016-03-11T16:00:29Z</time>
      </trkpt>
      <trkpt lat="44.54052" lon="2.56557">
        <ele>365.49</ele>
        <time>2016-03-11T16:00:42Z</time>
      </trkpt>
      <trkpt lat="44.54034" lon="2.56559">
        <ele>356.43</ele>
        <time>2016-03-11T16:02:34Z</time>
      </trkpt>
      <trkpt lat="44.54013" lon="2.56559">
        <ele>350.63</ele>
        <time>2016-03-11T16:02:40Z</time>
      </trkpt>
      <trkpt lat="44.53995" lon="2.56553">
        <ele>341.78</ele>
        <time>2016-03-11T16:03:45Z</time>
      </trkpt>
      <trkpt lat="44.5398" lon="2.56536">
        <ele>342.69</ele>
        <time>2016-03-11T16:03:59Z</time>
      </trkpt>
      <trkpt lat="44.53964" lon="2.56514">
        <ele>346.85</ele>
        <time>2016-03-11T16:04:43Z</time>
      </trkpt>
      <trkpt lat="44.53923" lon="2.56503">
        <ele>332.09</ele>
        <time>2016-03-11T16:05:29Z</time>
      </trkpt>
      <trkpt lat="44.53905" lon="2.56505">
        <ele>327.1</ele>
        <time>2016-03-11T16:07:16Z</time>
      </trkpt>
      <trkpt lat="44.53894" lon="2.56469">
        <ele>331.74</ele>
        <time>2016-03-11T16:07:47Z</time>
      </trkpt>
      <trkpt lat="44.53873" lon="2.56468">
        <ele>323.81</ele>
        <time>2016-03-11T16:07:58Z</time>
      </trkpt>
      <trkpt lat="44.53855" lon="2.56461">
        <ele>333.19</ele>
        <time>2016-03-11T16:08:27Z</time>
      </trkpt>
      <trkpt lat="44.53836" lon="2.56459">
        <ele>337.73</ele>
        <time>2016-03-11T16:08:38Z</time>
      </trkpt>
    </trkseg>
  </trk>
</gpx>